Wetterdaten: Donnerstag, 22.06.2023
Datum Zeit Temp. Aussen Temp. o. S. Temp +5cm Feuchte Auss Luftdruck Regen Sonnenschein Regendauer Solar Windben Empfang
22.06.2023 00:00 23,1 C 22,2 C 18,9 C 67 % 1018,7 hPa 0,0 l/m 0 min 0 min 0 W/m 3,2 km/h (1 Bft) 91,49 %
22.06.2023 00:02 23,1 C 22,2 C 18,9 C 67 % 1018,6 hPa 0,0 l/m 0 min 0 min 0 W/m 3,2 km/h (1 Bft) 94,74 %
22.06.2023 00:04 23,1 C 22,2 C 18,9 C 67 % 1018,6 hPa 0,0 l/m 0 min 0 min 0 W/m 3,2 km/h (1 Bft) 93,88 %
22.06.2023 00:07 23,1 C 22,2 C 18,9 C 68 % 1018,6 hPa 0,0 l/m 0 min 0 min 0 W/m 3,2 km/h (1 Bft) 95,45 %
22.06.2023 00:08 23,1 C 22,2 C 18,9 C 68 % 1018,6 hPa 0,0 l/m 0 min 0 min 0 W/m 0,0 km/h (0 Bft) 100,00 %
22.06.2023 00:12 23,0 C 21,7 C 18,9 C 68 % 1018,7 hPa 0,0 l/m 0 min 0 min 0 W/m 3,2 km/h (1 Bft) 100,00 %
22.06.2023 00:14 22,9 C 21,7 C 18,3 C 68 % 1018,8 hPa 0,0 l/m 0 min 0 min 0 W/m 3,2 km/h (1 Bft) 97,87 %
22.06.2023 00:16 22,9 C 21,7 C 18,3 C 68 % 1018,8 hPa 0,0 l/m 0 min 0 min 0 W/m 6,4 km/h (2 Bft) 95,74 %
22.06.2023 00:18 22,9 C 21,7 C 18,3 C 68 % 1018,8 hPa 0,0 l/m 0 min 0 min 0 W/m 6,4 km/h (2 Bft) 95,65 %
22.06.2023 00:20 22,9 C 21,7 C 18,3 C 68 % 1018,8 hPa 0,0 l/m 0 min 0 min 0 W/m 3,2 km/h (1 Bft) 97,87 %
22.06.2023 00:22 22,9 C 21,7 C 18,3 C 68 % 1018,8 hPa 0,0 l/m 0 min 0 min 0 W/m 3,2 km/h (1 Bft) 97,87 %
22.06.2023 00:24 22,9 C 21,7 C 18,3 C 69 % 1018,9 hPa 0,0 l/m 0 min 0 min 0 W/m 3,2 km/h (1 Bft) 95,74 %
22.06.2023 00:26 22,8 C 21,7 C 18,3 C 69 % 1018,8 hPa 0,0 l/m 0 min 0 min 0 W/m 0,0 km/h (0 Bft) 97,87 %
22.06.2023 00:28 22,8 C 21,7 C 18,3 C 68 % 1018,9 hPa 0,0 l/m 0 min 0 min 0 W/m 3,2 km/h (1 Bft) 97,92 %
22.06.2023 00:30 22,8 C 21,7 C 18,3 C 69 % 1018,8 hPa 0,0 l/m 0 min 0 min 0 W/m 3,2 km/h (1 Bft) 98,00 %
22.06.2023 00:32 22,8 C 21,7 C 18,3 C 69 % 1018,9 hPa 0,0 l/m 0 min 0 min 0 W/m 3,2 km/h (1 Bft) 97,87 %
22.06.2023 00:34 22,7 C 21,7 C 18,3 C 69 % 1018,8 hPa 0,0 l/m 0 min 0 min 0 W/m 3,2 km/h (1 Bft) 97,87 %
22.06.2023 00:36 22,7 C 21,7 C 18,3 C 68 % 1018,7 hPa 0,0 l/m 0 min 0 min 0 W/m 12,9 km/h (3 Bft) 97,87 %
22.06.2023 00:38 22,7 C 21,7 C 18,3 C 69 % 1018,7 hPa 0,0 l/m 0 min 0 min 0 W/m 3,2 km/h (1 Bft) 97,87 %
22.06.2023 00:40 22,7 C 21,7 C 18,3 C 69 % 1018,7 hPa 0,0 l/m 0 min 0 min 0 W/m 3,2 km/h (1 Bft) 97,87 %
22.06.2023 00:42 22,6 C 21,7 C 18,3 C 69 % 1018,7 hPa 0,0 l/m 0 min 0 min 0 W/m 0,0 km/h (0 Bft) 100,00 %
22.06.2023 00:44 22,6 C 21,1 C 18,3 C 68 % 1018,7 hPa 0,0 l/m 0 min 0 min 0 W/m 0,0 km/h (0 Bft) 97,83 %
22.06.2023 00:46 22,6 C 21,1 C 18,3 C 69 % 1018,7 hPa 0,0 l/m 0 min 0 min 0 W/m 3,2 km/h (1 Bft) 100,00 %
22.06.2023 00:48 22,5 C 21,1 C 18,3 C 69 % 1018,7 hPa 0,0 l/m 0 min 0 min 0 W/m 9,7 km/h (2 Bft) 100,00 %
22.06.2023 00:50 22,5 C 21,1 C 18,3 C 68 % 1018,7 hPa 0,0 l/m 0 min 0 min 0 W/m 6,4 km/h (2 Bft) 100,00 %
22.06.2023 00:52 22,4 C 21,1 C 18,3 C 68 % 1018,7 hPa 0,0 l/m 0 min 0 min 0 W/m 3,2 km/h (1 Bft) 97,87 %
22.06.2023 00:54 22,4 C 21,1 C 18,3 C 69 % 1018,7 hPa 0,0 l/m 0 min 0 min 0 W/m 3,2 km/h (1 Bft) 100,00 %
22.06.2023 00:56 22,4 C 21,1 C 18,3 C 69 % 1018,7 hPa 0,0 l/m 0 min 0 min 0 W/m 3,2 km/h (1 Bft) 100,00 %
22.06.2023 00:58 22,3 C 21,1 C 18,3 C 69 % 1018,7 hPa 0,0 l/m 0 min 0 min 0 W/m 3,2 km/h (1 Bft) 100,00 %
22.06.2023 01:00 22,3 C 21,1 C 17,8 C 69 % 1018,7 hPa 0,0 l/m 0 min 0 min 0 W/m 3,2 km/h (1 Bft) 100,00 %
22.06.2023 01:02 22,3 C 21,1 C 17,8 C 69 % 1018,7 hPa 0,0 l/m 0 min 0 min 0 W/m 3,2 km/h (1 Bft) 100,00 %
22.06.2023 01:04 22,3 C 21,1 C 17,8 C 69 % 1018,7 hPa 0,0 l/m 0 min 0 min 0 W/m 3,2 km/h (1 Bft) 100,00 %
22.06.2023 01:06 22,3 C 21,1 C 17,8 C 69 % 1018,7 hPa 0,0 l/m 0 min 0 min 0 W/m 0,0 km/h (0 Bft) 97,87 %
22.06.2023 01:08 22,3 C 21,1 C 17,8 C 69 % 1018,7 hPa 0,0 l/m 0 min 0 min 0 W/m 0,0 km/h (0 Bft) 100,00 %
22.06.2023 01:10 22,2 C 21,1 C 17,8 C 69 % 1018,7 hPa 0,0 l/m 0 min 0 min 0 W/m 0,0 km/h (0 Bft) 100,00 %
22.06.2023 01:12 22,2 C 21,1 C 17,8 C 70 % 1018,7 hPa 0,0 l/m 0 min 0 min 0 W/m 3,2 km/h (1 Bft) 100,00 %
22.06.2023 01:14 22,2 C 21,1 C 17,8 C 70 % 1018,7 hPa 0,0 l/m 0 min 0 min 0 W/m 3,2 km/h (1 Bft) 100,00 %
22.06.2023 01:16 22,2 C 21,1 C 17,8 C 70 % 1018,7 hPa 0,0 l/m 0 min 0 min 0 W/m 3,2 km/h (1 Bft) 100,00 %
22.06.2023 01:18 22,2 C 21,1 C 17,8 C 71 % 1018,6 hPa 0,0 l/m 0 min 0 min 0 W/m 3,2 km/h (1 Bft) 100,00 %
22.06.2023 01:20 22,1 C 21,1 C 17,8 C 71 % 1018,6 hPa 0,0 l/m 0 min 0 min 0 W/m 3,2 km/h (1 Bft) 100,00 %
22.06.2023 01:22 22,1 C 21,1 C 17,8 C 71 % 1018,6 hPa 0,0 l/m 0 min 0 min 0 W/m 3,2 km/h (1 Bft) 97,83 %
22.06.2023 01:24 22,1 C 21,1 C 17,8 C 71 % 1018,6 hPa 0,0 l/m 0 min 0 min 0 W/m 12,9 km/h (3 Bft) 100,00 %
22.06.2023 01:26 22,1 C 21,1 C 17,8 C 71 % 1018,7 hPa 0,0 l/m 0 min 0 min 0 W/m 6,4 km/h (2 Bft) 100,00 %
22.06.2023 01:28 22,1 C 21,1 C 17,8 C 71 % 1018,7 hPa 0,0 l/m 0 min 0 min 0 W/m 3,2 km/h (1 Bft) 100,00 %
22.06.2023 01:30 22,1 C 21,1 C 17,8 C 71 % 1018,7 hPa 0,0 l/m 0 min 0 min 0 W/m 3,2 km/h (1 Bft) 100,00 %
22.06.2023 01:32 22,1 C 21,1 C 17,8 C 72 % 1018,6 hPa 0,0 l/m 0 min 0 min 0 W/m 6,4 km/h (2 Bft) 95,74 %
22.06.2023 01:34 22,0 C 21,1 C 17,8 C 71 % 1018,7 hPa 0,0 l/m 0 min 0 min 0 W/m 3,2 km/h (1 Bft) 100,00 %
22.06.2023 01:36 22,0 C 21,1 C 17,8 C 72 % 1018,6 hPa 0,0 l/m 0 min 0 min 0 W/m 3,2 km/h (1 Bft) 97,83 %
22.06.2023 01:38 22,0 C 21,1 C 17,8 C 72 % 1018,6 hPa 0,0 l/m 0 min 0 min 0 W/m 12,9 km/h (3 Bft) 97,87 %
22.06.2023 01:40 22,0 C 21,1 C 17,8 C 72 % 1018,6 hPa 0,0 l/m 0 min 0 min 0 W/m 3,2 km/h (1 Bft) 97,87 %
22.06.2023 01:42 22,0 C 21,1 C 17,8 C 72 % 1018,6 hPa 0,0 l/m 0 min 0 min 0 W/m 3,2 km/h (1 Bft) 97,87 %
22.06.2023 01:44 21,9 C 21,1 C 17,8 C 72 % 1018,5 hPa 0,0 l/m 0 min 0 min 0 W/m 6,4 km/h (2 Bft) 98,18 %
22.06.2023 01:46 21,9 C 21,1 C 17,8 C 72 % 1018,5 hPa 0,0 l/m 0 min 0 min 0 W/m 6,4 km/h (2 Bft) 95,92 %
22.06.2023 01:48 21,9 C 21,1 C 17,8 C 72 % 1018,5 hPa 0,0 l/m 0 min 0 min 0 W/m 6,4 km/h (2 Bft) 97,14 %
22.06.2023 01:50 21,9 C 21,1 C 17,8 C 73 % 1018,6 hPa 0,0 l/m 0 min 0 min 0 W/m 9,7 km/h (2 Bft) 95,74 %
22.06.2023 01:52 21,9 C 21,1 C 17,8 C 73 % 1018,6 hPa 0,0 l/m 0 min 0 min 0 W/m 6,4 km/h (2 Bft) 97,87 %
22.06.2023 01:54 21,9 C 21,1 C 17,8 C 73 % 1018,6 hPa 0,0 l/m 0 min 0 min 0 W/m 6,4 km/h (2 Bft) 96,15 %
22.06.2023 01:56 21,9 C 21,1 C 17,8 C 73 % 1018,7 hPa 0,0 l/m 0 min 0 min 0 W/m 9,7 km/h (2 Bft) 97,87 %
22.06.2023 01:58 21,8 C 20,6 C 17,8 C 73 % 1018,6 hPa 0,0 l/m 0 min 0 min 0 W/m 6,4 km/h (2 Bft) 97,87 %
22.06.2023 02:00 21,8 C 20,6 C 17,8 C 74 % 1018,6 hPa 0,0 l/m 0 min 0 min 0 W/m 12,9 km/h (3 Bft) 97,83 %
22.06.2023 02:02 21,8 C 21,1 C 17,8 C 74 % 1018,7 hPa 0,0 l/m 0 min 0 min 0 W/m 3,2 km/h (1 Bft) 98,04 %
22.06.2023 02:04 21,8 C 20,6 C 17,8 C 74 % 1018,6 hPa 0,0 l/m 0 min 0 min 0 W/m 3,2 km/h (1 Bft) 97,87 %
22.06.2023 02:06 21,8 C 20,6 C 17,8 C 74 % 1018,6 hPa 0,0 l/m 0 min 0 min 0 W/m 6,4 km/h (2 Bft) 97,87 %
22.06.2023 02:08 21,8 C 20,6 C 17,2 C 74 % 1018,7 hPa 0,0 l/m 0 min 0 min 0 W/m 0,0 km/h (0 Bft) 92,11 %
22.06.2023 02:10 21,8 C 20,6 C 17,2 C 74 % 1018,6 hPa 0,0 l/m 0 min 0 min 0 W/m 0,0 km/h (0 Bft) 95,74 %
22.06.2023 02:17 21,7 C 20,6 C 17,2 C 75 % 1018,7 hPa 0,0 l/m 0 min 0 min 0 W/m 0,0 km/h (0 Bft) 94,67 %
22.06.2023 02:18 21,7 C 20,6 C 17,2 C 75 % 1018,7 hPa 0,0 l/m 0 min 0 min 0 W/m 0,0 km/h (0 Bft) 91,67 %
22.06.2023 02:20 21,6 C 20,6 C 17,2 C 75 % 1018,7 hPa 0,0 l/m 0 min 0 min 0 W/m 0,0 km/h (0 Bft) 97,87 %
22.06.2023 02:22 21,6 C 20,6 C 17,2 C 75 % 1018,6 hPa 0,0 l/m 0 min 0 min 0 W/m 0,0 km/h (0 Bft) 97,87 %
22.06.2023 02:24 21,6 C 20,6 C 17,2 C 75 % 1018,6 hPa 0,0 l/m 0 min 0 min 0 W/m 0,0 km/h (0 Bft) 95,74 %
22.06.2023 02:26 21,6 C 20,6 C 17,2 C 75 % 1018,6 hPa 0,0 l/m 0 min 0 min 0 W/m 0,0 km/h (0 Bft) 97,83 %
22.06.2023 02:28 21,6 C 20,6 C 17,2 C 76 % 1018,6 hPa 0,0 l/m 0 min 0 min 0 W/m 3,2 km/h (1 Bft) 97,87 %
22.06.2023 02:30 21,6 C 20,6 C 17,2 C 76 % 1018,6 hPa 0,0 l/m 0 min 0 min 0 W/m 3,2 km/h (1 Bft) 95,74 %
22.06.2023 02:32 21,6 C 20,6 C 17,2 C 76 % 1018,6 hPa 0,0 l/m 0 min 0 min 0 W/m 3,2 km/h (1 Bft) 97,87 %
22.06.2023 02:34 21,5 C 20,6 C 17,2 C 76 % 1018,5 hPa 0,0 l/m 0 min 0 min 0 W/m 3,2 km/h (1 Bft) 96,00 %
22.06.2023 02:36 21,5 C 20,6 C 17,2 C 76 % 1018,6 hPa 0,0 l/m 0 min 0 min 0 W/m 12,9 km/h (3 Bft) 97,87 %
22.06.2023 02:38 21,4 C 20,6 C 17,2 C 76 % 1018,6 hPa 0,0 l/m 0 min 0 min 0 W/m 0,0 km/h (0 Bft) 91,30 %
22.06.2023 02:40 21,4 C 20,6 C 17,2 C 76 % 1018,6 hPa 0,0 l/m 0 min 0 min 0 W/m 3,2 km/h (1 Bft) 97,87 %
22.06.2023 02:42 21,4 C 20,6 C 17,2 C 76 % 1018,5 hPa 0,0 l/m 0 min 0 min 0 W/m 3,2 km/h (1 Bft) 97,87 %
22.06.2023 02:44 21,4 C 20,6 C 17,2 C 77 % 1018,5 hPa 0,0 l/m 0 min 0 min 0 W/m 0,0 km/h (0 Bft) 97,87 %
22.06.2023 02:46 21,4 C 20,6 C 17,2 C 77 % 1018,5 hPa 0,0 l/m 0 min 0 min 0 W/m 3,2 km/h (1 Bft) 95,74 %
22.06.2023 02:48 21,3 C 20,6 C 17,2 C 77 % 1018,5 hPa 0,0 l/m 0 min 0 min 0 W/m 3,2 km/h (1 Bft) 95,74 %
22.06.2023 02:50 21,4 C 20,6 C 17,2 C 77 % 1018,5 hPa 0,0 l/m 0 min 0 min 0 W/m 3,2 km/h (1 Bft) 95,74 %
22.06.2023 02:52 21,3 C 20,0 C 17,2 C 77 % 1018,5 hPa 0,0 l/m 0 min 0 min 0 W/m 3,2 km/h (1 Bft) 93,62 %
22.06.2023 02:54 21,3 C 20,0 C 17,2 C 77 % 1018,6 hPa 0,0 l/m 0 min 0 min 0 W/m 3,2 km/h (1 Bft) 95,74 %
22.06.2023 02:56 21,3 C 20,0 C 17,2 C 77 % 1018,6 hPa 0,0 l/m 0 min 0 min 0 W/m 0,0 km/h (0 Bft) 95,74 %
22.06.2023 02:58 21,3 C 20,0 C 17,2 C 77 % 1018,6 hPa 0,0 l/m 0 min 0 min 0 W/m 0,0 km/h (0 Bft) 94,87 %
22.06.2023 03:00 21,3 C 20,0 C 17,2 C 77 % 1018,5 hPa 0,0 l/m 0 min 0 min 0 W/m 0,0 km/h (0 Bft) 97,83 %
22.06.2023 03:02 21,3 C 20,0 C 17,2 C 77 % 1018,5 hPa 0,0 l/m 0 min 0 min 0 W/m 3,2 km/h (1 Bft) 96,00 %
22.06.2023 03:04 21,3 C 20,0 C 17,2 C 78 % 1018,5 hPa 0,0 l/m 0 min 0 min 0 W/m 3,2 km/h (1 Bft) 97,92 %
22.06.2023 03:06 21,2 C 20,0 C 17,2 C 78 % 1018,5 hPa 0,0 l/m 0 min 0 min 0 W/m 3,2 km/h (1 Bft) 97,87 %
22.06.2023 03:08 21,2 C 20,0 C 17,2 C 78 % 1018,5 hPa 0,0 l/m 0 min 0 min 0 W/m 3,2 km/h (1 Bft) 93,62 %
22.06.2023 03:10 21,2 C 20,0 C 16,7 C 78 % 1018,5 hPa 0,0 l/m 0 min 0 min 0 W/m 0,0 km/h (0 Bft) 97,83 %
22.06.2023 03:12 21,2 C 20,0 C 16,7 C 78 % 1018,4 hPa 0,0 l/m 0 min 0 min 0 W/m 3,2 km/h (1 Bft) 97,87 %
22.06.2023 03:14 21,1 C 20,0 C 16,7 C 78 % 1018,4 hPa 0,0 l/m 0 min 0 min 0 W/m 0,0 km/h (0 Bft) 97,87 %
22.06.2023 03:16 21,1 C 20,0 C 16,7 C 78 % 1018,4 hPa 0,0 l/m 0 min 0 min 0 W/m 3,2 km/h (1 Bft) 97,87 %
22.06.2023 03:18 21,1 C 20,0 C 16,7 C 78 % 1018,4 hPa 0,0 l/m 0 min 0 min 0 W/m 3,2 km/h (1 Bft) 97,87 %
22.06.2023 03:20 21,1 C 20,0 C 16,7 C 78 % 1018,4 hPa 0,0 l/m 0 min 0 min 0 W/m 3,2 km/h (1 Bft) 97,87 %
22.06.2023 03:22 21,1 C 20,0 C 16,7 C 79 % 1018,4 hPa 0,0 l/m 0 min 0 min 0 W/m 3,2 km/h (1 Bft) 97,87 %
22.06.2023 03:24 21,1 C 20,0 C 16,7 C 79 % 1018,3 hPa 0,0 l/m 0 min 0 min 0 W/m 3,2 km/h (1 Bft) 95,65 %
22.06.2023 03:26 21,1 C 20,0 C 16,7 C 79 % 1018,3 hPa 0,0 l/m 0 min 0 min 0 W/m 3,2 km/h (1 Bft) 95,74 %
22.06.2023 03:28 21,1 C 20,0 C 16,7 C 79 % 1018,3 hPa 0,0 l/m 0 min 0 min 0 W/m 0,0 km/h (0 Bft) 97,87 %
22.06.2023 03:30 21,0 C 20,0 C 16,7 C 79 % 1018,2 hPa 0,0 l/m 0 min 0 min 0 W/m 3,2 km/h (1 Bft) 97,87 %
22.06.2023 03:32 21,0 C 20,0 C 16,7 C 79 % 1018,3 hPa 0,0 l/m 0 min 0 min 0 W/m 3,2 km/h (1 Bft) 93,62 %
22.06.2023 03:34 20,9 C 20,0 C 16,7 C 79 % 1018,2 hPa 0,0 l/m 0 min 0 min 0 W/m 0,0 km/h (0 Bft) 95,74 %
22.06.2023 03:36 20,9 C 20,0 C 16,7 C 79 % 1018,2 hPa 0,0 l/m 0 min 0 min 0 W/m 0,0 km/h (0 Bft) 97,83 %
22.06.2023 03:38 20,9 C 20,0 C 16,7 C 79 % 1018,2 hPa 0,0 l/m 0 min 0 min 0 W/m 3,2 km/h (1 Bft) 97,87 %
22.06.2023 03:40 20,8 C 20,0 C 16,7 C 79 % 1018,2 hPa 0,0 l/m 0 min 0 min 0 W/m 3,2 km/h (1 Bft) 97,87 %
22.06.2023 03:42 20,8 C 19,4 C 16,7 C 79 % 1018,2 hPa 0,0 l/m 0 min 0 min 0 W/m 3,2 km/h (1 Bft) 97,87 %
22.06.2023 03:44 20,8 C 19,4 C 16,7 C 79 % 1018,2 hPa 0,0 l/m 0 min 0 min 0 W/m 3,2 km/h (1 Bft) 97,87 %
22.06.2023 03:46 20,8 C 20,0 C 16,7 C 79 % 1018,2 hPa 0,0 l/m 0 min 0 min 0 W/m 3,2 km/h (1 Bft) 93,62 %
22.06.2023 03:48 20,8 C 19,4 C 16,7 C 79 % 1018,2 hPa 0,0 l/m 0 min 0 min 0 W/m 3,2 km/h (1 Bft) 97,83 %
22.06.2023 03:50 20,8 C 19,4 C 16,7 C 79 % 1018,2 hPa 0,0 l/m 0 min 0 min 0 W/m 3,2 km/h (1 Bft) 97,87 %
22.06.2023 03:52 20,7 C 19,4 C 16,7 C 79 % 1018,2 hPa 0,0 l/m 0 min 0 min 0 W/m 3,2 km/h (1 Bft) 97,87 %
22.06.2023 03:54 20,7 C 19,4 C 16,7 C 79 % 1018,2 hPa 0,0 l/m 0 min 0 min 0 W/m 3,2 km/h (1 Bft) 97,87 %
22.06.2023 03:56 20,7 C 19,4 C 16,7 C 79 % 1018,2 hPa 0,0 l/m 0 min 0 min 0 W/m 6,4 km/h (2 Bft) 95,83 %
22.06.2023 03:58 20,7 C 19,4 C 16,7 C 79 % 1018,2 hPa 0,0 l/m 0 min 0 min 0 W/m 0,0 km/h (0 Bft) 97,87 %
22.06.2023 04:00 20,7 C 19,4 C 16,7 C 79 % 1018,1 hPa 0,0 l/m 0 min 0 min 0 W/m 3,2 km/h (1 Bft) 97,83 %
22.06.2023 04:02 20,7 C 19,4 C 16,7 C 79 % 1018,1 hPa 0,0 l/m 0 min 0 min 0 W/m 0,0 km/h (0 Bft) 97,87 %
22.06.2023 04:04 20,7 C 19,4 C 16,7 C 79 % 1018,1 hPa 0,0 l/m 0 min 0 min 0 W/m 0,0 km/h (0 Bft) 95,92 %
22.06.2023 04:06 20,7 C 19,4 C 16,7 C 79 % 1018,1 hPa 0,0 l/m 0 min 0 min 0 W/m 3,2 km/h (1 Bft) 100,00 %
22.06.2023 04:08 20,7 C 19,4 C 16,7 C 79 % 1018,1 hPa 0,0 l/m 0 min 0 min 0 W/m 3,2 km/h (1 Bft) 97,87 %
22.06.2023 04:10 20,7 C 19,4 C 16,7 C 80 % 1018,0 hPa 0,0 l/m 0 min 0 min 0 W/m 0,0 km/h (0 Bft) 100,00 %
22.06.2023 04:12 20,7 C 19,4 C 16,7 C 80 % 1018,2 hPa 0,0 l/m 0 min 0 min 0 W/m 0,0 km/h (0 Bft) 100,00 %
22.06.2023 04:14 20,7 C 19,4 C 16,7 C 80 % 1018,2 hPa 0,0 l/m 0 min 0 min 0 W/m 0,0 km/h (0 Bft) 97,87 %
22.06.2023 04:16 20,7 C 19,4 C 16,7 C 80 % 1018,2 hPa 0,0 l/m 0 min 0 min 0 W/m 0,0 km/h (0 Bft) 97,87 %
22.06.2023 04:18 20,6 C 19,4 C 16,7 C 80 % 1018,1 hPa 0,0 l/m 0 min 0 min 0 W/m 0,0 km/h (0 Bft) 100,00 %
22.06.2023 04:20 20,6 C 19,4 C 16,7 C 80 % 1018,1 hPa 0,0 l/m 0 min 0 min 0 W/m 0,0 km/h (0 Bft) 100,00 %
22.06.2023 04:22 20,6 C 19,4 C 16,7 C 80 % 1018,1 hPa 0,0 l/m 0 min 0 min 0 W/m 0,0 km/h (0 Bft) 100,00 %
22.06.2023 04:24 20,6 C 19,4 C 16,7 C 81 % 1018,0 hPa 0,0 l/m 0 min 0 min 0 W/m 0,0 km/h (0 Bft) 100,00 %
22.06.2023 04:26 20,6 C 19,4 C 16,7 C 80 % 1018,0 hPa 0,0 l/m 0 min 0 min 0 W/m 0,0 km/h (0 Bft) 100,00 %
22.06.2023 04:28 20,6 C 19,4 C 16,7 C 80 % 1018,1 hPa 0,0 l/m 0 min 0 min 0 W/m 0,0 km/h (0 Bft) 100,00 %
22.06.2023 04:30 20,6 C 19,4 C 16,7 C 80 % 1018,0 hPa 0,0 l/m 0 min 0 min 0 W/m 3,2 km/h (1 Bft) 100,00 %
22.06.2023 04:32 20,6 C 19,4 C 16,7 C 80 % 1018,0 hPa 0,0 l/m 0 min 0 min 0 W/m 3,2 km/h (1 Bft) 97,87 %
22.06.2023 04:34 20,6 C 19,4 C 16,7 C 80 % 1018,0 hPa 0,0 l/m 0 min 0 min 0 W/m 3,2 km/h (1 Bft) 100,00 %
22.06.2023 04:36 20,6 C 19,4 C 16,7 C 80 % 1018,0 hPa 0,0 l/m 0 min 0 min 0 W/m 0,0 km/h (0 Bft) 100,00 %
22.06.2023 04:38 20,6 C 19,4 C 16,7 C 80 % 1017,9 hPa 0,0 l/m 0 min 0 min 0 W/m 0,0 km/h (0 Bft) 97,83 %
22.06.2023 04:40 20,6 C 19,4 C 16,7 C 80 % 1017,9 hPa 0,0 l/m 0 min 0 min 0 W/m 0,0 km/h (0 Bft) 100,00 %
22.06.2023 04:42 20,6 C 19,4 C 16,7 C 80 % 1017,9 hPa 0,0 l/m 0 min 0 min 0 W/m 6,4 km/h (2 Bft) 100,00 %
22.06.2023 04:44 20,6 C 19,4 C 16,7 C 81 % 1017,9 hPa 0,0 l/m 0 min 0 min 0 W/m 3,2 km/h (1 Bft) 100,00 %
22.06.2023 04:46 20,6 C 19,4 C 16,7 C 81 % 1017,9 hPa 0,0 l/m 0 min 0 min 0 W/m 3,2 km/h (1 Bft) 100,00 %
22.06.2023 04:48 20,6 C 19,4 C 16,7 C 81 % 1017,9 hPa 0,0 l/m 0 min 0 min 0 W/m 3,2 km/h (1 Bft) 97,87 %
22.06.2023 04:50 20,6 C 19,4 C 16,1 C 81 % 1017,9 hPa 0,0 l/m 0 min 0 min 0 W/m 3,2 km/h (1 Bft) 100,00 %
22.06.2023 04:52 20,5 C 19,4 C 16,1 C 81 % 1017,9 hPa 0,0 l/m 0 min 0 min 0 W/m 6,4 km/h (2 Bft) 100,00 %
22.06.2023 04:54 20,5 C 19,4 C 16,1 C 81 % 1017,8 hPa 0,0 l/m 0 min 0 min 0 W/m 3,2 km/h (1 Bft) 100,00 %
22.06.2023 04:56 20,5 C 19,4 C 16,1 C 81 % 1017,8 hPa 0,0 l/m 0 min 0 min 0 W/m 0,0 km/h (0 Bft) 100,00 %
22.06.2023 04:58 20,5 C 19,4 C 16,1 C 81 % 1017,8 hPa 0,0 l/m 0 min 0 min 0 W/m 3,2 km/h (1 Bft) 100,00 %
22.06.2023 05:00 20,4 C 19,4 C 16,1 C 81 % 1017,8 hPa 0,0 l/m 0 min 0 min 0 W/m 6,4 km/h (2 Bft) 97,87 %
22.06.2023 05:02 20,4 C 19,4 C 16,1 C 81 % 1017,8 hPa 0,0 l/m 0 min 0 min 0 W/m 3,2 km/h (1 Bft) 97,87 %
22.06.2023 05:04 20,4 C 19,4 C 16,1 C 81 % 1017,8 hPa 0,0 l/m 0 min 0 min 0 W/m 3,2 km/h (1 Bft) 97,87 %
22.06.2023 05:06 20,4 C 19,4 C 16,1 C 81 % 1017,8 hPa 0,0 l/m 0 min 0 min 0 W/m 3,2 km/h (1 Bft) 97,87 %
22.06.2023 05:08 20,4 C 19,4 C 16,1 C 81 % 1017,8 hPa 0,0 l/m 0 min 0 min 0 W/m 3,2 km/h (1 Bft) 97,87 %
22.06.2023 05:10 20,4 C 19,4 C 16,1 C 81 % 1017,7 hPa 0,0 l/m 0 min 0 min 0 W/m 6,4 km/h (2 Bft) 95,74 %
22.06.2023 05:12 20,4 C 19,4 C 16,1 C 81 % 1017,7 hPa 0,0 l/m 0 min 0 min 0 W/m 3,2 km/h (1 Bft) 97,83 %
22.06.2023 05:14 20,4 C 19,4 C 16,1 C 82 % 1017,6 hPa 0,0 l/m 0 min 0 min 0 W/m 6,4 km/h (2 Bft) 97,87 %
22.06.2023 05:16 20,4 C 19,4 C 16,1 C 82 % 1017,6 hPa 0,0 l/m 0 min 0 min 0 W/m 3,2 km/h (1 Bft) 93,62 %
22.06.2023 05:18 20,3 C 19,4 C 16,1 C 82 % 1017,6 hPa 0,0 l/m 0 min 0 min 0 W/m 6,4 km/h (2 Bft) 95,74 %
22.06.2023 05:20 20,3 C 19,4 C 16,1 C 82 % 1017,6 hPa 0,0 l/m 0 min 0 min 0 W/m 6,4 km/h (2 Bft) 93,62 %
22.06.2023 05:22 20,3 C 19,4 C 16,1 C 82 % 1017,6 hPa 0,0 l/m 0 min 0 min 0 W/m 6,4 km/h (2 Bft) 97,87 %
22.06.2023 05:24 20,3 C 19,4 C 16,1 C 82 % 1017,6 hPa 0,0 l/m 0 min 0 min 0 W/m 6,4 km/h (2 Bft) 91,30 %
22.06.2023 05:26 20,3 C 19,4 C 16,1 C 82 % 1017,6 hPa 0,0 l/m 0 min 0 min 0 W/m 9,7 km/h (2 Bft) 95,74 %
22.06.2023 05:28 20,3 C 19,4 C 16,1 C 82 % 1017,5 hPa 0,0 l/m 0 min 0 min 0 W/m 9,7 km/h (2 Bft) 93,62 %
22.06.2023 05:30 20,4 C 19,4 C 16,1 C 82 % 1017,4 hPa 0,0 l/m 0 min 0 min 0 W/m 6,4 km/h (2 Bft) 93,62 %
22.06.2023 05:32 20,4 C 19,4 C 16,1 C 82 % 1017,4 hPa 0,0 l/m 0 min 0 min 0 W/m 6,4 km/h (2 Bft) 93,62 %
22.06.2023 05:34 20,4 C 19,4 C 16,1 C 82 % 1017,3 hPa 0,0 l/m 0 min 0 min 0 W/m 6,4 km/h (2 Bft) 93,62 %
22.06.2023 05:36 20,3 C 19,4 C 16,1 C 82 % 1017,3 hPa 0,0 l/m 0 min 0 min 1 W/m 3,2 km/h (1 Bft) 93,48 %
22.06.2023 05:38 20,4 C 19,4 C 16,1 C 82 % 1017,3 hPa 0,0 l/m 0 min 0 min 5 W/m 3,2 km/h (1 Bft) 95,74 %
22.06.2023 05:40 20,4 C 19,4 C 16,1 C 82 % 1017,3 hPa 0,0 l/m 0 min 0 min 5 W/m 0,0 km/h (0 Bft) 96,00 %
22.06.2023 05:42 20,4 C 19,4 C 16,1 C 82 % 1017,3 hPa 0,0 l/m 0 min 0 min 7 W/m 0,0 km/h (0 Bft) 91,67 %
22.06.2023 05:44 20,4 C 19,4 C 16,1 C 82 % 1017,3 hPa 0,0 l/m 0 min 0 min 9 W/m 0,0 km/h (0 Bft) 91,30 %
22.06.2023 05:46 20,4 C 19,4 C 16,1 C 82 % 1017,3 hPa 0,0 l/m 0 min 0 min 11 W/m 12,9 km/h (3 Bft) 91,49 %
22.06.2023 05:48 20,4 C 19,4 C 16,1 C 82 % 1017,3 hPa 0,0 l/m 0 min 0 min 12 W/m 0,0 km/h (0 Bft) 93,62 %
22.06.2023 05:50 20,4 C 19,4 C 16,1 C 82 % 1017,3 hPa 0,0 l/m 0 min 0 min 14 W/m 0,0 km/h (0 Bft) 95,74 %
22.06.2023 05:52 20,4 C 19,4 C 16,1 C 82 % 1017,4 hPa 0,0 l/m 0 min 0 min 16 W/m 3,2 km/h (1 Bft) 95,74 %
22.06.2023 05:54 20,4 C 19,4 C 16,1 C 82 % 1017,3 hPa 0,0 l/m 0 min 0 min 18 W/m 0,0 km/h (0 Bft) 93,62 %
22.06.2023 05:56 20,4 C 19,4 C 16,1 C 82 % 1017,3 hPa 0,0 l/m 0 min 0 min 19 W/m 3,2 km/h (1 Bft) 93,62 %
22.06.2023 05:58 20,4 C 19,4 C 16,1 C 82 % 1017,3 hPa 0,0 l/m 0 min 0 min 21 W/m 0,0 km/h (0 Bft) 95,65 %
22.06.2023 06:00 20,4 C 19,4 C 16,1 C 82 % 1017,3 hPa 0,0 l/m 0 min 0 min 22 W/m 0,0 km/h (0 Bft) 97,87 %
22.06.2023 06:02 20,4 C 19,4 C 16,1 C 82 % 1017,3 hPa 0,0 l/m 0 min 0 min 24 W/m 0,0 km/h (0 Bft) 97,87 %
22.06.2023 06:04 20,4 C 19,4 C 16,7 C 82 % 1017,4 hPa 0,0 l/m 0 min 0 min 28 W/m 0,0 km/h (0 Bft) 97,96 %
22.06.2023 06:07 20,4 C 19,4 C 16,7 C 82 % 1017,4 hPa 0,0 l/m 0 min 0 min 31 W/m 6,4 km/h (2 Bft) 98,57 %
22.06.2023 06:08 20,4 C 20,0 C 16,7 C 82 % 1017,4 hPa 0,0 l/m 0 min 0 min 33 W/m 3,2 km/h (1 Bft) 95,83 %
22.06.2023 06:12 20,4 C 20,0 C 16,7 C 82 % 1017,4 hPa 0,0 l/m 0 min 0 min 31 W/m 3,2 km/h (1 Bft) 96,83 %
22.06.2023 06:14 20,4 C 20,0 C 16,7 C 82 % 1017,4 hPa 0,0 l/m 0 min 0 min 24 W/m 3,2 km/h (1 Bft) 97,14 %
22.06.2023 06:16 20,5 C 20,0 C 16,7 C 82 % 1017,4 hPa 0,0 l/m 0 min 0 min 18 W/m 3,2 km/h (1 Bft) 97,92 %
22.06.2023 06:18 20,5 C 20,0 C 16,7 C 82 % 1017,4 hPa 0,0 l/m 0 min 0 min 16 W/m 6,4 km/h (2 Bft) 97,87 %
22.06.2023 06:20 20,5 C 19,4 C 16,7 C 82 % 1017,4 hPa 0,0 l/m 0 min 0 min 15 W/m 6,4 km/h (2 Bft) 97,87 %
22.06.2023 06:22 20,5 C 19,4 C 16,7 C 82 % 1017,4 hPa 0,0 l/m 0 min 0 min 14 W/m 6,4 km/h (2 Bft) 100,00 %
22.06.2023 06:24 20,5 C 19,4 C 16,7 C 83 % 1017,4 hPa 0,0 l/m 0 min 0 min 12 W/m 6,4 km/h (2 Bft) 100,00 %
22.06.2023 06:26 20,5 C 19,4 C 16,7 C 83 % 1017,4 hPa 0,0 l/m 0 min 0 min 12 W/m 6,4 km/h (2 Bft) 100,00 %
22.06.2023 06:28 20,5 C 19,4 C 16,1 C 83 % 1017,4 hPa 0,0 l/m 0 min 0 min 12 W/m 6,4 km/h (2 Bft) 100,00 %
22.06.2023 06:30 20,5 C 19,4 C 16,1 C 83 % 1017,4 hPa 0,0 l/m 0 min 0 min 12 W/m 3,2 km/h (1 Bft) 100,00 %
22.06.2023 06:32 20,5 C 19,4 C 16,1 C 83 % 1017,4 hPa 0,0 l/m 0 min 0 min 12 W/m 0,0 km/h (0 Bft) 97,87 %
22.06.2023 06:34 20,5 C 19,4 C 16,1 C 83 % 1017,4 hPa 0,0 l/m 0 min 0 min 12 W/m 0,0 km/h (0 Bft) 100,00 %
22.06.2023 06:36 20,5 C 19,4 C 16,1 C 83 % 1017,3 hPa 0,0 l/m 0 min 0 min 12 W/m 3,2 km/h (1 Bft) 100,00 %
22.06.2023 06:38 20,5 C 19,4 C 16,1 C 83 % 1017,3 hPa 0,0 l/m 0 min 0 min 12 W/m 0,0 km/h (0 Bft) 100,00 %
22.06.2023 06:40 20,5 C 19,4 C 16,1 C 83 % 1017,4 hPa 0,0 l/m 0 min 2 min 13 W/m 0,0 km/h (0 Bft) 100,00 %
22.06.2023 06:42 20,5 C 19,4 C 16,1 C 83 % 1017,3 hPa 0,0 l/m 0 min 0 min 16 W/m 0,0 km/h (0 Bft) 100,00 %
22.06.2023 06:44 20,5 C 19,4 C 16,1 C 84 % 1017,3 hPa 0,0 l/m 0 min 0 min 18 W/m 0,0 km/h (0 Bft) 100,00 %
22.06.2023 06:46 20,5 C 19,4 C 15,6 C 84 % 1017,3 hPa 0,0 l/m 0 min 0 min 18 W/m 0,0 km/h (0 Bft) 100,00 %
22.06.2023 06:48 20,5 C 19,4 C 15,6 C 84 % 1017,3 hPa 0,0 l/m 0 min 0 min 16 W/m 0,0 km/h (0 Bft) 100,00 %
22.06.2023 06:50 20,5 C 19,4 C 16,1 C 84 % 1017,3 hPa 0,0 l/m 0 min 0 min 16 W/m 0,0 km/h (0 Bft) 100,00 %
22.06.2023 06:52 20,5 C 19,4 C 16,1 C 84 % 1017,4 hPa 0,0 l/m 0 min 0 min 18 W/m 0,0 km/h (0 Bft) 97,87 %
22.06.2023 06:54 20,4 C 19,4 C 16,1 C 84 % 1017,3 hPa 0,0 l/m 0 min 0 min 19 W/m 0,0 km/h (0 Bft) 100,00 %
22.06.2023 06:56 20,4 C 19,4 C 16,1 C 84 % 1017,4 hPa 0,0 l/m 0 min 0 min 20 W/m 0,0 km/h (0 Bft) 100,00 %
22.06.2023 06:58 20,4 C 19,4 C 16,1 C 84 % 1017,4 hPa 0,0 l/m 0 min 0 min 22 W/m 0,0 km/h (0 Bft) 100,00 %
22.06.2023 07:00 20,4 C 19,4 C 16,1 C 84 % 1017,4 hPa 0,0 l/m 0 min 0 min 25 W/m 0,0 km/h (0 Bft) 97,83 %
22.06.2023 07:02 20,4 C 19,4 C 16,1 C 84 % 1017,3 hPa 0,0 l/m 0 min 0 min 26 W/m 0,0 km/h (0 Bft) 97,87 %
22.06.2023 07:04 20,4 C 19,4 C 15,6 C 84 % 1017,2 hPa 0,0 l/m 0 min 0 min 26 W/m 0,0 km/h (0 Bft) 100,00 %
22.06.2023 07:06 20,4 C 19,4 C 15,6 C 85 % 1017,3 hPa 0,0 l/m 0 min 0 min 26 W/m 0,0 km/h (0 Bft) 100,00 %
22.06.2023 07:08 20,4 C 19,4 C 15,6 C 85 % 1017,2 hPa 0,0 l/m 0 min 2 min 26 W/m 0,0 km/h (0 Bft) 100,00 %
22.06.2023 07:10 20,5 C 19,4 C 15,6 C 85 % 1017,2 hPa 0,0 l/m 0 min 2 min 26 W/m 0,0 km/h (0 Bft) 97,87 %
22.06.2023 07:12 20,5 C 19,4 C 16,1 C 85 % 1017,2 hPa 0,0 l/m 0 min 0 min 28 W/m 0,0 km/h (0 Bft) 100,00 %
22.06.2023 07:14 20,4 C 19,4 C 16,1 C 85 % 1017,2 hPa 0,0 l/m 0 min 2 min 28 W/m 0,0 km/h (0 Bft) 97,87 %
22.06.2023 07:16 20,4 C 19,4 C 16,1 C 85 % 1017,2 hPa 0,0 l/m 0 min 2 min 30 W/m 0,0 km/h (0 Bft) 100,00 %
22.06.2023 07:18 20,4 C 19,4 C 16,1 C 85 % 1017,2 hPa 0,0 l/m 0 min 0 min 29 W/m 0,0 km/h (0 Bft) 100,00 %
22.06.2023 07:20 20,4 C 19,4 C 16,1 C 85 % 1017,2 hPa 0,0 l/m 0 min 0 min 28 W/m 0,0 km/h (0 Bft) 95,74 %
22.06.2023 07:22 20,4 C 19,4 C 16,1 C 86 % 1017,2 hPa 0,0 l/m 0 min 0 min 28 W/m 0,0 km/h (0 Bft) 97,87 %
22.06.2023 07:24 20,4 C 19,4 C 16,1 C 86 % 1017,2 hPa 0,0 l/m 0 min 0 min 28 W/m 0,0 km/h (0 Bft) 97,87 %
22.06.2023 07:26 20,4 C 19,4 C 16,1 C 86 % 1017,3 hPa 0,0 l/m 0 min 0 min 28 W/m 0,0 km/h (0 Bft) 97,83 %
22.06.2023 07:28 20,4 C 19,4 C 16,1 C 86 % 1017,3 hPa 0,0 l/m 0 min 0 min 30 W/m 0,0 km/h (0 Bft) 97,87 %
22.06.2023 07:30 20,4 C 19,4 C 16,1 C 86 % 1017,3 hPa 0,0 l/m 0 min 0 min 32 W/m 0,0 km/h (0 Bft) 97,87 %
22.06.2023 07:32 20,3 C 19,4 C 16,1 C 86 % 1017,3 hPa 0,0 l/m 0 min 0 min 33 W/m 0,0 km/h (0 Bft) 97,87 %
22.06.2023 07:34 20,3 C 19,4 C 16,1 C 86 % 1017,3 hPa 0,0 l/m 0 min 0 min 34 W/m 0,0 km/h (0 Bft) 95,74 %
22.06.2023 07:36 20,3 C 19,4 C 16,1 C 86 % 1017,3 hPa 0,0 l/m 0 min 0 min 35 W/m 0,0 km/h (0 Bft) 97,87 %
22.06.2023 07:38 20,3 C 19,4 C 16,1 C 86 % 1017,4 hPa 0,0 l/m 0 min 0 min 35 W/m 0,0 km/h (0 Bft) 95,65 %
22.06.2023 07:40 20,3 C 19,4 C 16,1 C 86 % 1017,4 hPa 0,0 l/m 0 min 0 min 37 W/m 0,0 km/h (0 Bft) 97,87 %
22.06.2023 07:42 20,3 C 19,4 C 16,1 C 86 % 1017,4 hPa 0,0 l/m 0 min 0 min 37 W/m 0,0 km/h (0 Bft) 97,87 %
22.06.2023 07:44 20,3 C 20,0 C 16,1 C 86 % 1017,5 hPa 0,0 l/m 0 min 0 min 39 W/m 0,0 km/h (0 Bft) 95,74 %
22.06.2023 07:46 20,3 C 20,0 C 16,1 C 86 % 1017,5 hPa 0,0 l/m 0 min 0 min 40 W/m 0,0 km/h (0 Bft) 97,87 %
22.06.2023 07:48 20,4 C 20,0 C 16,1 C 86 % 1017,5 hPa 0,0 l/m 0 min 0 min 40 W/m 0,0 km/h (0 Bft) 95,74 %
22.06.2023 07:50 20,4 C 20,0 C 16,7 C 86 % 1017,5 hPa 0,0 l/m 0 min 0 min 44 W/m 0,0 km/h (0 Bft) 97,83 %
22.06.2023 07:52 20,4 C 20,0 C 16,7 C 86 % 1017,5 hPa 0,0 l/m 0 min 0 min 51 W/m 0,0 km/h (0 Bft) 97,87 %
22.06.2023 07:54 20,3 C 20,0 C 16,7 C 86 % 1017,4 hPa 0,0 l/m 0 min 0 min 59 W/m 3,2 km/h (1 Bft) 97,87 %
22.06.2023 07:56 20,3 C 20,0 C 16,7 C 85 % 1017,4 hPa 0,0 l/m 0 min 0 min 65 W/m 0,0 km/h (0 Bft) 97,87 %
22.06.2023 07:58 20,4 C 20,0 C 16,7 C 85 % 1017,4 hPa 0,0 l/m 0 min 0 min 68 W/m 0,0 km/h (0 Bft) 97,87 %
22.06.2023 08:00 20,4 C 20,0 C 16,7 C 85 % 1017,4 hPa 0,0 l/m 0 min 0 min 71 W/m 0,0 km/h (0 Bft) 97,87 %
22.06.2023 08:02 20,4 C 20,0 C 16,7 C 85 % 1017,4 hPa 0,0 l/m 0 min 0 min 72 W/m 0,0 km/h (0 Bft) 93,62 %
22.06.2023 08:04 20,4 C 20,0 C 16,7 C 85 % 1017,4 hPa 0,0 l/m 0 min 0 min 71 W/m 0,0 km/h (0 Bft) 97,83 %
22.06.2023 08:06 20,4 C 20,0 C 16,7 C 85 % 1017,4 hPa 0,0 l/m 0 min 0 min 70 W/m 0,0 km/h (0 Bft) 97,87 %
22.06.2023 08:08 20,4 C 20,0 C 16,7 C 85 % 1017,4 hPa 0,0 l/m 0 min 0 min 68 W/m 0,0 km/h (0 Bft) 97,87 %
22.06.2023 08:10 20,5 C 20,0 C 16,7 C 85 % 1017,4 hPa 0,0 l/m 0 min 0 min 61 W/m 0,0 km/h (0 Bft) 95,74 %
22.06.2023 08:12 20,6 C 20,0 C 16,7 C 85 % 1017,4 hPa 0,0 l/m 0 min 0 min 56 W/m 0,0 km/h (0 Bft) 97,87 %
22.06.2023 08:14 20,6 C 20,0 C 16,7 C 84 % 1017,4 hPa 0,0 l/m 0 min 0 min 53 W/m 0,0 km/h (0 Bft) 97,87 %
22.06.2023 08:16 20,6 C 20,0 C 16,7 C 84 % 1017,4 hPa 0,0 l/m 0 min 0 min 53 W/m 0,0 km/h (0 Bft) 97,87 %
22.06.2023 08:18 20,6 C 20,0 C 16,7 C 84 % 1017,4 hPa 0,0 l/m 0 min 0 min 53 W/m 3,2 km/h (1 Bft) 97,83 %
22.06.2023 08:20 20,6 C 20,0 C 16,7 C 84 % 1017,4 hPa 0,0 l/m 0 min 0 min 56 W/m 9,7 km/h (2 Bft) 93,62 %
22.06.2023 08:22 20,7 C 20,0 C 16,7 C 84 % 1017,4 hPa 0,0 l/m 0 min 0 min 62 W/m 6,4 km/h (2 Bft) 97,87 %
22.06.2023 08:24 20,7 C 20,0 C 16,7 C 84 % 1017,4 hPa 0,0 l/m 0 min 0 min 69 W/m 3,2 km/h (1 Bft) 95,74 %
22.06.2023 08:26 20,7 C 20,0 C 16,7 C 84 % 1017,4 hPa 0,0 l/m 0 min 0 min 74 W/m 6,4 km/h (2 Bft) 95,74 %
22.06.2023 08:28 20,7 C 20,6 C 16,7 C 84 % 1017,4 hPa 0,0 l/m 0 min 0 min 81 W/m 3,2 km/h (1 Bft) 95,74 %
22.06.2023 08:30 20,7 C 20,6 C 16,7 C 84 % 1017,4 hPa 0,0 l/m 0 min 0 min 83 W/m 6,4 km/h (2 Bft) 95,65 %
22.06.2023 08:32 20,8 C 20,6 C 17,2 C 84 % 1017,4 hPa 0,0 l/m 0 min 0 min 83 W/m 6,4 km/h (2 Bft) 95,74 %
22.06.2023 08:34 20,8 C 20,6 C 17,2 C 83 % 1017,4 hPa 0,0 l/m 0 min 0 min 86 W/m 6,4 km/h (2 Bft) 95,74 %
22.06.2023 08:36 20,8 C 20,6 C 17,2 C 83 % 1017,4 hPa 0,0 l/m 0 min 0 min 89 W/m 6,4 km/h (2 Bft) 97,87 %
22.06.2023 08:38 20,8 C 20,6 C 17,2 C 83 % 1017,5 hPa 0,0 l/m 0 min 0 min 92 W/m 3,2 km/h (1 Bft) 95,74 %
22.06.2023 08:40 20,9 C 20,6 C 17,2 C 83 % 1017,5 hPa 0,0 l/m 0 min 0 min 93 W/m 6,4 km/h (2 Bft) 97,87 %
22.06.2023 08:42 20,9 C 20,6 C 17,2 C 83 % 1017,4 hPa 0,0 l/m 0 min 0 min 93 W/m 3,2 km/h (1 Bft) 97,83 %
22.06.2023 08:44 20,9 C 20,6 C 17,2 C 83 % 1017,4 hPa 0,0 l/m 0 min 0 min 96 W/m 3,2 km/h (1 Bft) 97,87 %
22.06.2023 08:46 21,0 C 21,1 C 17,2 C 83 % 1017,4 hPa 0,0 l/m 0 min 0 min 97 W/m 3,2 km/h (1 Bft) 95,74 %
22.06.2023 08:48 21,1 C 21,1 C 17,2 C 83 % 1017,3 hPa 0,0 l/m 0 min 0 min 94 W/m 3,2 km/h (1 Bft) 95,74 %
22.06.2023 08:50 21,1 C 21,1 C 17,2 C 83 % 1017,3 hPa 0,0 l/m 0 min 0 min 84 W/m 6,4 km/h (2 Bft) 97,87 %
22.06.2023 08:52 21,1 C 21,1 C 17,2 C 82 % 1017,2 hPa 0,0 l/m 0 min 0 min 77 W/m 12,9 km/h (3 Bft) 97,87 %
22.06.2023 08:54 21,1 C 20,6 C 17,2 C 82 % 1017,2 hPa 0,0 l/m 0 min 0 min 74 W/m 6,4 km/h (2 Bft) 97,67 %
22.06.2023 08:56 21,1 C 20,6 C 17,2 C 81 % 1017,2 hPa 0,0 l/m 0 min 0 min 70 W/m 6,4 km/h (2 Bft) 97,87 %
22.06.2023 08:58 21,2 C 20,6 C 17,2 C 81 % 1017,2 hPa 0,0 l/m 0 min 0 min 66 W/m 3,2 km/h (1 Bft) 98,00 %
22.06.2023 09:00 21,2 C 20,6 C 17,2 C 81 % 1017,2 hPa 0,0 l/m 0 min 0 min 61 W/m 6,4 km/h (2 Bft) 97,87 %
22.06.2023 09:02 21,2 C 20,6 C 17,2 C 81 % 1017,2 hPa 0,0 l/m 0 min 0 min 56 W/m 3,2 km/h (1 Bft) 93,62 %
22.06.2023 09:04 21,2 C 20,6 C 17,2 C 81 % 1017,2 hPa 0,0 l/m 0 min 0 min 50 W/m 6,4 km/h (2 Bft) 95,74 %
22.06.2023 09:06 21,3 C 20,6 C 17,2 C 81 % 1017,3 hPa 0,0 l/m 0 min 0 min 44 W/m 9,7 km/h (2 Bft) 95,74 %
22.06.2023 09:08 21,3 C 20,6 C 17,2 C 81 % 1017,3 hPa 0,0 l/m 0 min 0 min 40 W/m 6,4 km/h (2 Bft) 97,83 %
22.06.2023 09:10 21,3 C 20,6 C 17,2 C 81 % 1017,4 hPa 0,0 l/m 0 min 0 min 39 W/m 6,4 km/h (2 Bft) 95,74 %
22.06.2023 09:12 21,3 C 20,6 C 17,2 C 81 % 1017,3 hPa 0,0 l/m 0 min 0 min 39 W/m 3,2 km/h (1 Bft) 95,74 %
22.06.2023 09:14 21,3 C 20,6 C 17,2 C 81 % 1017,3 hPa 0,0 l/m 0 min 0 min 41 W/m 9,7 km/h (2 Bft) 95,74 %
22.06.2023 09:16 21,3 C 20,6 C 17,2 C 81 % 1017,3 hPa 0,0 l/m 0 min 0 min 46 W/m 6,4 km/h (2 Bft) 97,87 %
22.06.2023 09:18 21,3 C 20,6 C 17,2 C 81 % 1017,3 hPa 0,0 l/m 0 min 0 min 53 W/m 9,7 km/h (2 Bft) 97,87 %
22.06.2023 09:20 21,3 C 20,6 C 17,2 C 80 % 1017,3 hPa 0,0 l/m 0 min 0 min 54 W/m 3,2 km/h (1 Bft) 97,87 %
22.06.2023 09:22 21,2 C 20,6 C 17,2 C 80 % 1017,3 hPa 0,0 l/m 0 min 0 min 53 W/m 3,2 km/h (1 Bft) 97,83 %
22.06.2023 09:24 21,2 C 20,6 C 16,7 C 80 % 1017,3 hPa 0,0 l/m 0 min 2 min 53 W/m 3,2 km/h (1 Bft) 97,87 %
22.06.2023 09:26 21,3 C 20,6 C 16,7 C 80 % 1017,3 hPa 0,0 l/m 0 min 0 min 53 W/m 6,4 km/h (2 Bft) 97,87 %
22.06.2023 09:28 21,3 C 20,6 C 16,7 C 81 % 1017,3 hPa 0,0 l/m 0 min 0 min 55 W/m 3,2 km/h (1 Bft) 97,87 %
22.06.2023 09:30 21,3 C 20,6 C 16,7 C 81 % 1017,3 hPa 0,0 l/m 0 min 0 min 54 W/m 3,2 km/h (1 Bft) 97,87 %
22.06.2023 09:32 21,3 C 20,6 C 16,7 C 81 % 1017,3 hPa 0,0 l/m 0 min 0 min 51 W/m 0,0 km/h (0 Bft) 97,87 %
22.06.2023 09:34 21,3 C 20,6 C 16,7 C 82 % 1017,3 hPa 0,0 l/m 0 min 0 min 54 W/m 3,2 km/h (1 Bft) 97,83 %
22.06.2023 09:36 21,3 C 20,6 C 16,7 C 82 % 1017,3 hPa 0,0 l/m 0 min 2 min 58 W/m 3,2 km/h (1 Bft) 95,74 %
22.06.2023 09:38 21,3 C 20,6 C 16,7 C 82 % 1017,2 hPa 0,0 l/m 0 min 0 min 62 W/m 3,2 km/h (1 Bft) 100,00 %
22.06.2023 09:40 21,3 C 20,6 C 16,7 C 83 % 1017,1 hPa 0,0 l/m 0 min 0 min 68 W/m 3,2 km/h (1 Bft) 97,87 %
22.06.2023 09:42 21,2 C 20,6 C 16,7 C 83 % 1017,1 hPa 0,0 l/m 0 min 0 min 77 W/m 3,2 km/h (1 Bft) 97,87 %
22.06.2023 09:44 21,2 C 20,6 C 16,7 C 83 % 1017,0 hPa 0,0 l/m 0 min 0 min 90 W/m 3,2 km/h (1 Bft) 97,87 %
22.06.2023 09:46 21,2 C 20,6 C 16,7 C 83 % 1016,9 hPa 0,0 l/m 0 min 0 min 108 W/m 6,4 km/h (2 Bft) 100,00 %
22.06.2023 09:48 21,1 C 20,6 C 16,7 C 83 % 1016,9 hPa 0,0 l/m 0 min 0 min 132 W/m 3,2 km/h (1 Bft) 97,87 %
22.06.2023 09:50 21,1 C 20,6 C 17,2 C 84 % 1016,8 hPa 0,0 l/m 0 min 0 min 172 W/m 6,4 km/h (2 Bft) 100,00 %
22.06.2023 09:52 21,1 C 21,1 C 17,2 C 84 % 1016,8 hPa 0,0 l/m 0 min 0 min 235 W/m 9,7 km/h (2 Bft) 100,00 %
22.06.2023 09:54 21,2 C 21,1 C 17,8 C 84 % 1016,7 hPa 0,0 l/m 0 min 0 min 243 W/m 3,2 km/h (1 Bft) 100,00 %
22.06.2023 09:56 21,2 C 21,1 C 17,8 C 84 % 1016,6 hPa 0,0 l/m 0 min 0 min 226 W/m 9,7 km/h (2 Bft) 100,00 %
22.06.2023 10:00 21,3 C 21,7 C 17,8 C 84 % 1016,6 hPa 0,0 l/m 0 min 0 min 219 W/m 9,7 km/h (2 Bft) 97,46 %
22.06.2023 10:02 21,3 C 21,7 C 17,8 C 84 % 1016,6 hPa 0,0 l/m 0 min 0 min 213 W/m 9,7 km/h (2 Bft) 97,30 %
22.06.2023 10:04 21,4 C 21,7 C 17,8 C 84 % 1016,5 hPa 0,0 l/m 0 min 0 min 197 W/m 6,4 km/h (2 Bft) 95,24 %
22.06.2023 10:05 21,4 C 21,7 C 17,8 C 84 % 1016,5 hPa 0,0 l/m 0 min 0 min 192 W/m 9,7 km/h (2 Bft) 96,49 %
22.06.2023 10:12 21,6 C 22,2 C 17,8 C 84 % 1016,3 hPa 0,0 l/m 0 min 0 min 181 W/m 9,7 km/h (2 Bft) 100,00 %
22.06.2023 10:14 21,6 C 21,7 C 17,8 C 84 % 1016,2 hPa 0,0 l/m 0 min 0 min 193 W/m 16,1 km/h (3 Bft) 100,00 %
22.06.2023 10:16 21,6 C 21,7 C 17,8 C 84 % 1016,3 hPa 0,0 l/m 0 min 0 min 206 W/m 16,1 km/h (3 Bft) 97,87 %
22.06.2023 10:18 21,6 C 22,2 C 17,8 C 84 % 1016,2 hPa 0,0 l/m 0 min 0 min 223 W/m 12,9 km/h (3 Bft) 100,00 %
22.06.2023 10:20 21,7 C 22,2 C 17,8 C 84 % 1016,2 hPa 0,0 l/m 0 min 0 min 266 W/m 16,1 km/h (3 Bft) 97,83 %
22.06.2023 10:22 21,7 C 22,8 C 18,3 C 84 % 1016,2 hPa 0,0 l/m 0 min 0 min 321 W/m 9,7 km/h (2 Bft) 97,87 %
22.06.2023 10:24 21,8 C 22,8 C 18,3 C 84 % 1016,3 hPa 0,0 l/m 0 min 0 min 256 W/m 9,7 km/h (2 Bft) 97,87 %
22.06.2023 10:26 21,8 C 22,8 C 18,3 C 84 % 1016,3 hPa 0,0 l/m 0 min 0 min 232 W/m 12,9 km/h (3 Bft) 100,00 %
22.06.2023 10:28 21,9 C 22,8 C 18,3 C 84 % 1016,3 hPa 0,0 l/m 0 min 0 min 241 W/m 9,7 km/h (2 Bft) 97,87 %
22.06.2023 10:30 22,0 C 22,8 C 18,3 C 84 % 1016,3 hPa 0,0 l/m 0 min 0 min 266 W/m 9,7 km/h (2 Bft) 97,87 %
22.06.2023 10:32 22,1 C 22,8 C 18,9 C 84 % 1016,3 hPa 0,0 l/m 0 min 0 min 309 W/m 9,7 km/h (2 Bft) 97,87 %
22.06.2023 10:34 22,1 C 23,3 C 18,9 C 84 % 1016,2 hPa 0,0 l/m 0 min 0 min 351 W/m 6,4 km/h (2 Bft) 95,74 %
22.06.2023 10:36 22,2 C 23,3 C 18,9 C 84 % 1016,2 hPa 0,0 l/m 0 min 0 min 352 W/m 6,4 km/h (2 Bft) 95,65 %
22.06.2023 10:38 22,3 C 23,3 C 19,4 C 84 % 1016,2 hPa 0,0 l/m 0 min 0 min 317 W/m 12,9 km/h (3 Bft) 97,87 %
22.06.2023 10:40 22,4 C 23,9 C 19,4 C 84 % 1016,2 hPa 0,0 l/m 0 min 0 min 305 W/m 9,7 km/h (2 Bft) 95,74 %
22.06.2023 10:42 22,5 C 23,9 C 19,4 C 84 % 1016,1 hPa 0,0 l/m 0 min 0 min 282 W/m 6,4 km/h (2 Bft) 97,87 %
22.06.2023 10:44 22,6 C 23,9 C 19,4 C 84 % 1016,1 hPa 0,0 l/m 0 min 0 min 246 W/m 6,4 km/h (2 Bft) 97,87 %
22.06.2023 10:46 22,7 C 23,9 C 19,4 C 83 % 1016,1 hPa 0,0 l/m 0 min 0 min 274 W/m 9,7 km/h (2 Bft) 97,87 %
22.06.2023 10:48 22,8 C 24,4 C 20,0 C 83 % 1016,1 hPa 0,0 l/m 0 min 0 min 340 W/m 6,4 km/h (2 Bft) 98,00 %
22.06.2023 10:50 22,9 C 25,0 C 20,6 C 83 % 1016,0 hPa 0,0 l/m 0 min 0 min 380 W/m 9,7 km/h (2 Bft) 97,37 %
22.06.2023 10:52 23,1 C 25,6 C 21,7 C 83 % 1016,0 hPa 0,0 l/m 2 min 0 min 700 W/m 9,7 km/h (2 Bft) 95,65 %
22.06.2023 10:54 23,3 C 26,1 C 22,8 C 82 % 1016,1 hPa 0,0 l/m 2 min 0 min 810 W/m 12,9 km/h (3 Bft) 97,87 %
22.06.2023 10:56 23,5 C 27,2 C 23,3 C 82 % 1016,1 hPa 0,0 l/m 2 min 0 min 880 W/m 12,9 km/h (3 Bft) 97,87 %
22.06.2023 10:58 23,8 C 27,8 C 23,3 C 82 % 1016,0 hPa 0,0 l/m 2 min 0 min 877 W/m 6,4 km/h (2 Bft) 96,00 %
22.06.2023 11:00 24,2 C 28,3 C 23,3 C 82 % 1016,0 hPa 0,0 l/m 2 min 0 min 877 W/m 16,1 km/h (3 Bft) 97,87 %
22.06.2023 11:02 24,5 C 28,3 C 23,3 C 80 % 1016,0 hPa 0,0 l/m 2 min 0 min 852 W/m 16,1 km/h (3 Bft) 93,62 %
22.06.2023 11:04 24,8 C 28,3 C 23,3 C 79 % 1015,9 hPa 0,0 l/m 2 min 0 min 811 W/m 9,7 km/h (2 Bft) 97,92 %
22.06.2023 11:06 25,1 C 28,9 C 22,8 C 78 % 1015,9 hPa 0,0 l/m 2 min 0 min 809 W/m 6,4 km/h (2 Bft) 93,62 %
22.06.2023 11:08 25,4 C 29,4 C 22,8 C 78 % 1016,0 hPa 0,0 l/m 2 min 0 min 814 W/m 12,9 km/h (3 Bft) 98,11 %
22.06.2023 11:10 25,6 C 28,9 C 22,8 C 75 % 1016,0 hPa 0,0 l/m 2 min 0 min 824 W/m 12,9 km/h (3 Bft) 97,14 %
22.06.2023 11:12 25,8 C 28,9 C 22,8 C 75 % 1016,0 hPa 0,0 l/m 2 min 0 min 834 W/m 9,7 km/h (2 Bft) 93,62 %
22.06.2023 11:14 25,9 C 29,4 C 22,8 C 74 % 1016,0 hPa 0,0 l/m 2 min 0 min 825 W/m 6,4 km/h (2 Bft) 97,87 %
22.06.2023 11:16 26,1 C 28,9 C 22,8 C 73 % 1016,0 hPa 0,0 l/m 2 min 0 min 817 W/m 12,9 km/h (3 Bft) 91,49 %
22.06.2023 11:18 26,2 C 29,4 C 22,8 C 73 % 1015,9 hPa 0,0 l/m 2 min 0 min 834 W/m 9,7 km/h (2 Bft) 97,87 %
22.06.2023 11:20 26,3 C 28,9 C 22,8 C 73 % 1015,9 hPa 0,0 l/m 2 min 0 min 721 W/m 12,9 km/h (3 Bft) 98,28 %
22.06.2023 11:22 26,3 C 28,3 C 22,2 C 72 % 1015,9 hPa 0,0 l/m 0 min 0 min 396 W/m 6,4 km/h (2 Bft) 94,29 %
22.06.2023 11:24 26,3 C 28,9 C 22,2 C 72 % 1015,9 hPa 0,0 l/m 2 min 0 min 469 W/m 12,9 km/h (3 Bft) 97,87 %
22.06.2023 11:26 26,3 C 28,9 C 22,8 C 72 % 1015,9 hPa 0,0 l/m 2 min 0 min 595 W/m 6,4 km/h (2 Bft) 95,74 %
22.06.2023 11:28 26,4 C 28,9 C 22,8 C 72 % 1015,9 hPa 0,0 l/m 2 min 0 min 636 W/m 12,9 km/h (3 Bft) 95,74 %
22.06.2023 11:30 26,3 C 28,3 C 22,8 C 71 % 1015,9 hPa 0,0 l/m 2 min 0 min 553 W/m 6,4 km/h (2 Bft) 93,62 %
22.06.2023 11:32 26,3 C 27,8 C 22,8 C 72 % 1015,8 hPa 0,0 l/m 2 min 0 min 503 W/m 3,2 km/h (1 Bft) 95,65 %
22.06.2023 11:34 26,3 C 27,8 C 22,8 C 72 % 1015,8 hPa 0,0 l/m 2 min 0 min 585 W/m 9,7 km/h (2 Bft) 95,74 %
22.06.2023 11:36 26,3 C 28,3 C 23,3 C 72 % 1015,7 hPa 0,0 l/m 2 min 0 min 708 W/m 12,9 km/h (3 Bft) 95,74 %
22.06.2023 11:38 26,3 C 28,3 C 23,3 C 72 % 1015,7 hPa 0,0 l/m 2 min 0 min 646 W/m 9,7 km/h (2 Bft) 95,74 %
22.06.2023 11:40 26,4 C 28,3 C 22,8 C 72 % 1015,6 hPa 0,0 l/m 2 min 0 min 585 W/m 6,4 km/h (2 Bft) 95,74 %
22.06.2023 11:42 26,4 C 28,3 C 23,3 C 72 % 1015,6 hPa 0,0 l/m 2 min 0 min 578 W/m 19,3 km/h (3 Bft) 95,74 %
22.06.2023 11:44 26,4 C 28,3 C 23,3 C 71 % 1015,6 hPa 0,0 l/m 2 min 0 min 651 W/m 9,7 km/h (2 Bft) 93,48 %
22.06.2023 11:46 26,5 C 28,9 C 23,9 C 72 % 1015,6 hPa 0,0 l/m 2 min 0 min 652 W/m 6,4 km/h (2 Bft) 97,87 %
22.06.2023 11:48 26,6 C 28,9 C 24,4 C 72 % 1015,5 hPa 0,0 l/m 2 min 0 min 616 W/m 12,9 km/h (3 Bft) 97,87 %
22.06.2023 11:50 26,6 C 28,9 C 24,4 C 72 % 1015,5 hPa 0,0 l/m 2 min 0 min 645 W/m 6,4 km/h (2 Bft) 97,87 %
22.06.2023 11:52 26,7 C 28,9 C 24,4 C 71 % 1015,5 hPa 0,0 l/m 2 min 0 min 608 W/m 9,7 km/h (2 Bft) 97,87 %
22.06.2023 11:54 26,7 C 28,9 C 25,0 C 71 % 1015,5 hPa 0,0 l/m 2 min 0 min 626 W/m 9,7 km/h (2 Bft) 100,00 %
22.06.2023 11:56 26,8 C 28,9 C 24,4 C 71 % 1015,4 hPa 0,0 l/m 2 min 0 min 668 W/m 9,7 km/h (2 Bft) 94,92 %
22.06.2023 11:58 26,8 C 28,9 C 24,4 C 71 % 1015,4 hPa 0,0 l/m 2 min 0 min 673 W/m 16,1 km/h (3 Bft) 97,14 %
22.06.2023 12:00 26,8 C 28,9 C 23,9 C 70 % 1015,4 hPa 0,0 l/m 2 min 0 min 492 W/m 16,1 km/h (3 Bft) 97,87 %
22.06.2023 12:02 26,8 C 28,3 C 23,3 C 70 % 1015,4 hPa 0,0 l/m 2 min 0 min 537 W/m 12,9 km/h (3 Bft) 98,31 %
22.06.2023 12:04 26,8 C 27,8 C 23,3 C 70 % 1015,3 hPa 0,0 l/m 2 min 0 min 458 W/m 12,9 km/h (3 Bft) 96,77 %
22.06.2023 12:08 26,6 C 27,2 C 23,3 C 71 % 1015,4 hPa 0,0 l/m 4 min 0 min 446 W/m 12,9 km/h (3 Bft) 96,97 %
22.06.2023 12:10 26,6 C 27,8 C 23,3 C 71 % 1015,4 hPa 0,0 l/m 2 min 0 min 470 W/m 16,1 km/h (3 Bft) 95,74 %
22.06.2023 12:12 26,6 C 27,8 C 22,8 C 71 % 1015,4 hPa 0,0 l/m 0 min 0 min 415 W/m 9,7 km/h (2 Bft) 97,87 %
22.06.2023 12:14 26,6 C 27,8 C 22,8 C 71 % 1015,4 hPa 0,0 l/m 0 min 0 min 362 W/m 12,9 km/h (3 Bft) 97,87 %
22.06.2023 12:16 26,6 C 26,7 C 22,2 C 71 % 1015,4 hPa 0,0 l/m 0 min 0 min 298 W/m 12,9 km/h (3 Bft) 97,87 %
22.06.2023 12:18 26,4 C 26,7 C 22,2 C 71 % 1015,5 hPa 0,0 l/m 0 min 0 min 257 W/m 9,7 km/h (2 Bft) 100,00 %
22.06.2023 12:20 26,3 C 26,1 C 22,2 C 71 % 1015,5 hPa 0,0 l/m 0 min 0 min 241 W/m 9,7 km/h (2 Bft) 100,00 %
22.06.2023 12:22 26,3 C 26,1 C 22,2 C 71 % 1015,5 hPa 0,0 l/m 0 min 0 min 232 W/m 12,9 km/h (3 Bft) 97,87 %
22.06.2023 12:24 26,2 C 26,1 C 21,7 C 71 % 1015,5 hPa 0,0 l/m 0 min 0 min 222 W/m 12,9 km/h (3 Bft) 100,00 %
22.06.2023 12:26 26,2 C 25,6 C 21,7 C 71 % 1015,5 hPa 0,0 l/m 0 min 0 min 208 W/m 12,9 km/h (3 Bft) 100,00 %
22.06.2023 12:28 26,1 C 25,6 C 21,7 C 71 % 1015,6 hPa 0,0 l/m 0 min 0 min 178 W/m 6,4 km/h (2 Bft) 100,00 %
22.06.2023 12:30 26,0 C 25,6 C 21,7 C 71 % 1015,6 hPa 0,0 l/m 0 min 0 min 139 W/m 6,4 km/h (2 Bft) 100,00 %
22.06.2023 12:32 25,9 C 25,0 C 21,1 C 72 % 1015,6 hPa 0,0 l/m 0 min 0 min 115 W/m 6,4 km/h (2 Bft) 100,00 %
22.06.2023 12:34 25,8 C 25,0 C 21,1 C 72 % 1015,7 hPa 0,0 l/m 0 min 0 min 98 W/m 3,2 km/h (1 Bft) 100,00 %
22.06.2023 12:36 25,8 C 24,4 C 21,1 C 72 % 1015,8 hPa 0,0 l/m 0 min 0 min 87 W/m 6,4 km/h (2 Bft) 100,00 %
22.06.2023 12:38 25,7 C 24,4 C 21,1 C 72 % 1015,8 hPa 0,0 l/m 0 min 0 min 84 W/m 6,4 km/h (2 Bft) 100,00 %
22.06.2023 12:40 25,6 C 24,4 C 21,1 C 72 % 1015,8 hPa 0,0 l/m 0 min 0 min 88 W/m 6,4 km/h (2 Bft) 100,00 %
22.06.2023 12:42 25,5 C 24,4 C 20,6 C 72 % 1015,9 hPa 0,0 l/m 0 min 0 min 91 W/m 3,2 km/h (1 Bft) 97,83 %
22.06.2023 12:44 25,4 C 23,9 C 20,6 C 73 % 1016,0 hPa 0,0 l/m 0 min 0 min 92 W/m 6,4 km/h (2 Bft) 100,00 %
22.06.2023 12:46 25,3 C 23,9 C 20,6 C 73 % 1015,9 hPa 0,0 l/m 0 min 0 min 90 W/m 6,4 km/h (2 Bft) 97,87 %
22.06.2023 12:48 25,3 C 24,4 C 20,6 C 73 % 1016,0 hPa 0,0 l/m 0 min 0 min 83 W/m 6,4 km/h (2 Bft) 100,00 %
22.06.2023 12:50 25,2 C 24,4 C 20,6 C 74 % 1015,9 hPa 0,0 l/m 0 min 0 min 73 W/m 6,4 km/h (2 Bft) 100,00 %
22.06.2023 12:52 25,2 C 23,9 C 20,6 C 74 % 1015,9 hPa 0,0 l/m 0 min 0 min 61 W/m 6,4 km/h (2 Bft) 100,00 %
22.06.2023 12:54 25,2 C 23,9 C 20,6 C 74 % 1016,0 hPa 0,0 l/m 0 min 0 min 54 W/m 3,2 km/h (1 Bft) 100,00 %
22.06.2023 12:56 25,2 C 23,9 C 20,0 C 74 % 1016,1 hPa 0,0 l/m 0 min 2 min 53 W/m 6,4 km/h (2 Bft) 100,00 %
22.06.2023 12:58 25,1 C 23,9 C 19,4 C 75 % 1016,1 hPa 0,0 l/m 0 min 2 min 46 W/m 3,2 km/h (1 Bft) 97,87 %
22.06.2023 13:00 25,1 C 23,9 C 18,3 C 76 % 1016,1 hPa 0,0 l/m 0 min 2 min 46 W/m 3,2 km/h (1 Bft) 100,00 %
22.06.2023 13:02 25,0 C 23,9 C 17,8 C 77 % 1016,2 hPa 0,0 l/m 0 min 2 min 58 W/m 3,2 km/h (1 Bft) 97,87 %
22.06.2023 13:04 25,0 C 23,9 C 17,8 C 78 % 1016,1 hPa 0,2 l/m 0 min 2 min 71 W/m 0,0 km/h (0 Bft) 95,35 %
22.06.2023 13:06 24,9 C 23,3 C 17,8 C 78 % 1016,2 hPa 0,0 l/m 0 min 2 min 80 W/m 6,4 km/h (2 Bft) 95,74 %
22.06.2023 13:08 24,9 C 23,3 C 17,8 C 79 % 1016,1 hPa 0,0 l/m 0 min 2 min 82 W/m 0,0 km/h (0 Bft) 95,65 %
22.06.2023 13:10 24,8 C 23,3 C 17,8 C 80 % 1016,2 hPa 0,0 l/m 0 min 2 min 73 W/m 3,2 km/h (1 Bft) 97,87 %
22.06.2023 13:12 24,8 C 22,8 C 17,8 C 80 % 1016,2 hPa 0,2 l/m 0 min 2 min 55 W/m 3,2 km/h (1 Bft) 93,62 %
22.06.2023 13:14 24,8 C 22,8 C 17,2 C 80 % 1016,3 hPa 0,0 l/m 0 min 2 min 39 W/m 3,2 km/h (1 Bft) 95,74 %
22.06.2023 13:16 24,6 C 22,8 C 17,2 C 81 % 1016,2 hPa 0,2 l/m 0 min 2 min 35 W/m 3,2 km/h (1 Bft) 95,74 %
22.06.2023 13:18 24,6 C 22,2 C 17,2 C 82 % 1016,2 hPa 0,4 l/m 0 min 2 min 35 W/m 0,0 km/h (0 Bft) 93,62 %
22.06.2023 13:20 24,6 C 22,2 C 17,2 C 83 % 1016,3 hPa 0,2 l/m 0 min 2 min 32 W/m 0,0 km/h (0 Bft) 95,74 %
22.06.2023 13:22 24,5 C 21,7 C 17,2 C 84 % 1016,2 hPa 0,2 l/m 0 min 2 min 36 W/m 0,0 km/h (0 Bft) 95,65 %
22.06.2023 13:24 24,4 C 21,7 C 17,2 C 84 % 1016,0 hPa 0,4 l/m 0 min 2 min 47 W/m 0,0 km/h (0 Bft) 95,74 %
22.06.2023 13:26 24,3 C 21,1 C 17,2 C 85 % 1015,8 hPa 0,2 l/m 0 min 2 min 55 W/m 0,0 km/h (0 Bft) 93,62 %
22.06.2023 13:28 24,2 C 21,1 C 17,2 C 86 % 1015,7 hPa 0,2 l/m 0 min 2 min 59 W/m 0,0 km/h (0 Bft) 95,74 %
22.06.2023 13:30 24,1 C 21,1 C 17,2 C 86 % 1015,6 hPa 0,0 l/m 0 min 2 min 60 W/m 0,0 km/h (0 Bft) 93,62 %
22.06.2023 13:32 23,9 C 21,1 C 17,2 C 87 % 1015,6 hPa 0,2 l/m 0 min 2 min 62 W/m 3,2 km/h (1 Bft) 95,74 %
22.06.2023 13:34 23,8 C 21,1 C 17,2 C 87 % 1015,4 hPa 0,0 l/m 0 min 2 min 64 W/m 0,0 km/h (0 Bft) 95,74 %
22.06.2023 13:36 23,7 C 21,1 C 17,2 C 88 % 1015,3 hPa 0,0 l/m 0 min 2 min 66 W/m 6,4 km/h (2 Bft) 93,48 %
22.06.2023 13:38 23,5 C 20,6 C 16,7 C 88 % 1015,2 hPa 0,0 l/m 0 min 2 min 65 W/m 6,4 km/h (2 Bft) 95,74 %
22.06.2023 13:40 23,3 C 20,6 C 16,7 C 88 % 1015,2 hPa 0,0 l/m 0 min 2 min 62 W/m 16,1 km/h (3 Bft) 95,74 %
22.06.2023 13:42 23,1 C 20,6 C 16,1 C 88 % 1015,1 hPa 0,0 l/m 0 min 2 min 62 W/m 9,7 km/h (2 Bft) 93,62 %
22.06.2023 13:44 22,9 C 20,6 C 16,1 C 88 % 1015,0 hPa 0,2 l/m 0 min 2 min 63 W/m 16,1 km/h (3 Bft) 93,62 %
22.06.2023 13:46 22,7 C 20,0 C 16,1 C 88 % 1015,1 hPa 0,0 l/m 0 min 2 min 66 W/m 9,7 km/h (2 Bft) 97,87 %
22.06.2023 13:48 22,5 C 20,0 C 16,1 C 89 % 1015,1 hPa 0,0 l/m 0 min 2 min 68 W/m 12,9 km/h (3 Bft) 97,87 %
22.06.2023 13:50 22,3 C 20,6 C 16,1 C 89 % 1015,1 hPa 0,2 l/m 0 min 2 min 70 W/m 6,4 km/h (2 Bft) 100,00 %
22.06.2023 13:52 22,2 C 20,6 C 16,1 C 90 % 1015,2 hPa 0,0 l/m 0 min 2 min 72 W/m 6,4 km/h (2 Bft) 100,00 %
22.06.2023 13:54 22,2 C 20,6 C 16,1 C 90 % 1015,1 hPa 0,0 l/m 0 min 2 min 76 W/m 12,9 km/h (3 Bft) 97,87 %
22.06.2023 13:56 22,1 C 20,0 C 16,1 C 91 % 1015,0 hPa 0,0 l/m 0 min 2 min 84 W/m 6,4 km/h (2 Bft) 100,00 %
22.06.2023 13:58 21,9 C 20,6 C 16,1 C 91 % 1014,9 hPa 0,0 l/m 0 min 2 min 96 W/m 6,4 km/h (2 Bft) 100,00 %
22.06.2023 14:00 21,8 C 20,6 C 16,1 C 92 % 1014,9 hPa 0,0 l/m 0 min 2 min 117 W/m 3,2 km/h (1 Bft) 100,00 %
22.06.2023 14:02 21,8 C 20,6 C 16,1 C 92 % 1014,9 hPa 0,0 l/m 0 min 2 min 145 W/m 12,9 km/h (3 Bft) 93,62 %
22.06.2023 14:04 21,7 C 20,6 C 16,1 C 92 % 1014,9 hPa 0,0 l/m 0 min 2 min 182 W/m 12,9 km/h (3 Bft) 97,92 %
22.06.2023 14:06 21,7 C 20,6 C 16,1 C 92 % 1014,8 hPa 0,0 l/m 0 min 2 min 220 W/m 6,4 km/h (2 Bft) 100,00 %
22.06.2023 14:08 21,8 C 21,1 C 16,7 C 93 % 1014,8 hPa 0,0 l/m 0 min 2 min 264 W/m 3,2 km/h (1 Bft) 100,00 %
22.06.2023 14:10 21,8 C 21,7 C 16,7 C 93 % 1014,6 hPa 0,2 l/m 0 min 2 min 299 W/m 6,4 km/h (2 Bft) 100,00 %
22.06.2023 14:12 21,8 C 21,7 C 16,7 C 94 % 1014,4 hPa 0,0 l/m 0 min 2 min 314 W/m 6,4 km/h (2 Bft) 97,87 %
22.06.2023 14:14 21,8 C 21,7 C 16,7 C 94 % 1014,3 hPa 0,0 l/m 0 min 2 min 312 W/m 12,9 km/h (3 Bft) 100,00 %
22.06.2023 14:16 21,9 C 22,2 C 17,2 C 94 % 1014,1 hPa 0,0 l/m 0 min 2 min 294 W/m 6,4 km/h (2 Bft) 100,00 %
22.06.2023 14:18 22,0 C 21,7 C 16,7 C 95 % 1014,1 hPa 0,0 l/m 0 min 0 min 269 W/m 19,3 km/h (3 Bft) 100,00 %
22.06.2023 14:20 21,9 C 21,7 C 16,7 C 94 % 1014,2 hPa 0,0 l/m 0 min 0 min 247 W/m 12,9 km/h (3 Bft) 97,87 %
22.06.2023 14:22 21,9 C 22,2 C 17,2 C 94 % 1014,3 hPa 0,0 l/m 0 min 0 min 258 W/m 12,9 km/h (3 Bft) 100,00 %
22.06.2023 14:24 21,9 C 22,2 C 16,7 C 95 % 1014,3 hPa 0,0 l/m 0 min 0 min 271 W/m 12,9 km/h (3 Bft) 97,83 %
22.06.2023 14:26 21,9 C 22,2 C 16,7 C 95 % 1014,3 hPa 0,0 l/m 0 min 0 min 297 W/m 12,9 km/h (3 Bft) 97,87 %
22.06.2023 14:28 21,9 C 22,2 C 17,2 C 95 % 1014,3 hPa 0,0 l/m 0 min 0 min 328 W/m 12,9 km/h (3 Bft) 100,00 %
22.06.2023 14:30 22,0 C 22,2 C 17,2 C 95 % 1014,3 hPa 0,0 l/m 0 min 0 min 279 W/m 6,4 km/h (2 Bft) 97,87 %
22.06.2023 14:32 22,1 C 22,8 C 17,2 C 95 % 1014,3 hPa 0,0 l/m 0 min 0 min 228 W/m 6,4 km/h (2 Bft) 97,87 %
22.06.2023 14:34 22,1 C 22,2 C 17,2 C 95 % 1014,3 hPa 0,0 l/m 0 min 0 min 224 W/m 19,3 km/h (3 Bft) 97,87 %
22.06.2023 14:36 22,1 C 22,2 C 17,2 C 95 % 1014,2 hPa 0,0 l/m 0 min 0 min 226 W/m 12,9 km/h (3 Bft) 97,87 %
22.06.2023 14:38 22,1 C 22,2 C 17,2 C 95 % 1014,1 hPa 0,0 l/m 0 min 0 min 228 W/m 9,7 km/h (2 Bft) 97,83 %
22.06.2023 14:40 22,1 C 22,2 C 17,2 C 95 % 1014,2 hPa 0,0 l/m 0 min 0 min 222 W/m 6,4 km/h (2 Bft) 95,74 %
22.06.2023 14:42 22,1 C 22,2 C 17,2 C 95 % 1014,3 hPa 0,0 l/m 0 min 2 min 188 W/m 9,7 km/h (2 Bft) 97,87 %
22.06.2023 14:44 22,2 C 22,2 C 17,2 C 95 % 1014,2 hPa 0,0 l/m 0 min 2 min 153 W/m 6,4 km/h (2 Bft) 97,87 %
22.06.2023 14:46 22,2 C 22,2 C 17,2 C 95 % 1014,2 hPa 0,0 l/m 0 min 2 min 139 W/m 6,4 km/h (2 Bft) 95,74 %
22.06.2023 14:48 22,2 C 22,2 C 17,2 C 95 % 1014,1 hPa 0,0 l/m 0 min 0 min 133 W/m 3,2 km/h (1 Bft) 97,87 %
22.06.2023 14:50 22,3 C 22,2 C 17,2 C 95 % 1014,0 hPa 0,0 l/m 0 min 0 min 131 W/m 3,2 km/h (1 Bft) 97,87 %
22.06.2023 14:52 22,3 C 22,2 C 17,2 C 95 % 1014,0 hPa 0,0 l/m 0 min 0 min 133 W/m 12,9 km/h (3 Bft) 97,87 %
22.06.2023 14:54 22,4 C 22,2 C 17,2 C 95 % 1014,0 hPa 0,0 l/m 0 min 0 min 125 W/m 6,4 km/h (2 Bft) 97,83 %
22.06.2023 14:56 22,4 C 22,2 C 17,2 C 95 % 1014,0 hPa 0,0 l/m 0 min 0 min 108 W/m 6,4 km/h (2 Bft) 95,74 %
22.06.2023 14:58 22,4 C 22,2 C 17,2 C 95 % 1014,1 hPa 0,0 l/m 0 min 0 min 117 W/m 6,4 km/h (2 Bft) 97,87 %
22.06.2023 15:00 22,4 C 22,2 C 17,2 C 94 % 1014,1 hPa 0,0 l/m 0 min 0 min 146 W/m 3,2 km/h (1 Bft) 95,74 %
22.06.2023 15:02 22,4 C 22,2 C 17,2 C 95 % 1014,1 hPa 0,0 l/m 0 min 0 min 130 W/m 6,4 km/h (2 Bft) 95,74 %
22.06.2023 15:04 22,4 C 22,2 C 17,2 C 94 % 1014,0 hPa 0,0 l/m 0 min 0 min 106 W/m 3,2 km/h (1 Bft) 97,62 %
22.06.2023 15:06 22,4 C 22,2 C 17,2 C 94 % 1014,0 hPa 0,0 l/m 0 min 0 min 97 W/m 6,4 km/h (2 Bft) 95,74 %
22.06.2023 15:08 22,4 C 22,2 C 16,7 C 94 % 1014,0 hPa 0,0 l/m 0 min 0 min 91 W/m 9,7 km/h (2 Bft) 95,74 %
22.06.2023 15:10 22,4 C 22,2 C 16,7 C 94 % 1014,1 hPa 0,0 l/m 0 min 2 min 92 W/m 6,4 km/h (2 Bft) 95,65 %
22.06.2023 15:12 22,4 C 22,2 C 16,7 C 94 % 1014,1 hPa 0,0 l/m 0 min 0 min 90 W/m 3,2 km/h (1 Bft) 95,74 %
22.06.2023 15:14 22,4 C 22,2 C 16,7 C 94 % 1014,0 hPa 0,0 l/m 0 min 0 min 93 W/m 6,4 km/h (2 Bft) 91,49 %
22.06.2023 15:16 22,4 C 22,2 C 17,2 C 94 % 1014,1 hPa 0,0 l/m 0 min 0 min 104 W/m 6,4 km/h (2 Bft) 95,74 %
22.06.2023 15:18 22,5 C 22,2 C 17,2 C 94 % 1014,0 hPa 0,0 l/m 0 min 0 min 125 W/m 6,4 km/h (2 Bft) 97,87 %
22.06.2023 15:20 22,5 C 22,2 C 17,2 C 94 % 1014,0 hPa 0,0 l/m 0 min 0 min 135 W/m 3,2 km/h (1 Bft) 93,62 %
22.06.2023 15:22 22,6 C 22,8 C 17,2 C 94 % 1014,0 hPa 0,0 l/m 0 min 0 min 127 W/m 6,4 km/h (2 Bft) 97,87 %
22.06.2023 15:24 22,6 C 22,8 C 17,2 C 94 % 1013,9 hPa 0,0 l/m 0 min 0 min 149 W/m 6,4 km/h (2 Bft) 97,87 %
22.06.2023 15:26 22,6 C 22,8 C 17,2 C 94 % 1013,8 hPa 0,0 l/m 0 min 0 min 185 W/m 9,7 km/h (2 Bft) 95,65 %
22.06.2023 15:28 22,6 C 22,8 C 17,2 C 94 % 1013,8 hPa 0,0 l/m 0 min 0 min 211 W/m 9,7 km/h (2 Bft) 97,87 %
22.06.2023 15:30 22,7 C 23,3 C 17,2 C 93 % 1013,8 hPa 0,0 l/m 0 min 0 min 283 W/m 12,9 km/h (3 Bft) 95,74 %
22.06.2023 15:32 22,7 C 23,9 C 17,8 C 94 % 1013,7 hPa 0,0 l/m 0 min 0 min 403 W/m 9,7 km/h (2 Bft) 97,87 %
22.06.2023 15:34 22,8 C 23,9 C 17,2 C 94 % 1013,6 hPa 0,0 l/m 0 min 0 min 344 W/m 9,7 km/h (2 Bft) 100,00 %
22.06.2023 15:36 22,8 C 23,3 C 17,2 C 93 % 1013,6 hPa 0,0 l/m 0 min 0 min 257 W/m 12,9 km/h (3 Bft) 97,87 %
22.06.2023 15:38 22,9 C 23,3 C 17,2 C 93 % 1013,7 hPa 0,0 l/m 0 min 0 min 249 W/m 12,9 km/h (3 Bft) 100,00 %
22.06.2023 15:40 22,9 C 23,3 C 17,2 C 93 % 1013,6 hPa 0,0 l/m 0 min 0 min 240 W/m 6,4 km/h (2 Bft) 100,00 %
22.06.2023 15:42 23,1 C 23,9 C 17,2 C 93 % 1013,6 hPa 0,0 l/m 0 min 0 min 273 W/m 9,7 km/h (2 Bft) 100,00 %
22.06.2023 15:44 23,1 C 23,9 C 17,2 C 93 % 1013,6 hPa 0,0 l/m 0 min 0 min 268 W/m 6,4 km/h (2 Bft) 100,00 %
22.06.2023 15:46 23,2 C 23,9 C 17,2 C 93 % 1013,5 hPa 0,0 l/m 0 min 0 min 267 W/m 12,9 km/h (3 Bft) 100,00 %
22.06.2023 15:48 23,2 C 23,9 C 17,2 C 92 % 1013,5 hPa 0,0 l/m 0 min 0 min 266 W/m 16,1 km/h (3 Bft) 95,74 %
22.06.2023 15:50 23,2 C 23,3 C 17,2 C 92 % 1013,4 hPa 0,0 l/m 0 min 0 min 223 W/m 19,3 km/h (3 Bft) 97,87 %
22.06.2023 15:52 23,2 C 23,3 C 17,2 C 91 % 1013,5 hPa 0,0 l/m 0 min 0 min 188 W/m 19,3 km/h (3 Bft) 95,74 %
22.06.2023 15:54 23,2 C 23,3 C 17,2 C 91 % 1013,5 hPa 0,0 l/m 0 min 0 min 158 W/m 9,7 km/h (2 Bft) 97,83 %
22.06.2023 15:56 23,2 C 23,3 C 17,2 C 91 % 1013,4 hPa 0,0 l/m 0 min 0 min 151 W/m 6,4 km/h (2 Bft) 95,74 %
22.06.2023 15:58 23,2 C 23,3 C 17,2 C 91 % 1013,4 hPa 0,0 l/m 0 min 0 min 237 W/m 16,1 km/h (3 Bft) 97,87 %
22.06.2023 16:00 23,2 C 23,3 C 17,2 C 91 % 1013,3 hPa 0,0 l/m 0 min 0 min 264 W/m 22,5 km/h (4 Bft) 97,87 %
22.06.2023 16:02 23,2 C 23,3 C 17,2 C 90 % 1013,3 hPa 0,0 l/m 0 min 0 min 207 W/m 12,9 km/h (3 Bft) 97,87 %
22.06.2023 16:04 23,2 C 22,8 C 17,2 C 90 % 1013,3 hPa 0,0 l/m 0 min 0 min 151 W/m 12,9 km/h (3 Bft) 95,83 %
22.06.2023 16:06 23,2 C 22,8 C 17,2 C 90 % 1013,2 hPa 0,0 l/m 0 min 0 min 138 W/m 16,1 km/h (3 Bft) 97,87 %
22.06.2023 16:08 23,2 C 22,8 C 17,2 C 90 % 1013,1 hPa 0,0 l/m 0 min 0 min 124 W/m 19,3 km/h (3 Bft) 97,83 %
22.06.2023 16:10 23,2 C 22,8 C 17,2 C 90 % 1013,1 hPa 0,0 l/m 0 min 0 min 104 W/m 9,7 km/h (2 Bft) 95,74 %
22.06.2023 16:12 23,2 C 22,8 C 17,2 C 90 % 1013,0 hPa 0,0 l/m 0 min 0 min 98 W/m 6,4 km/h (2 Bft) 95,74 %
22.06.2023 16:14 23,2 C 22,8 C 17,2 C 91 % 1013,0 hPa 0,0 l/m 0 min 0 min 114 W/m 6,4 km/h (2 Bft) 97,87 %
22.06.2023 16:16 23,2 C 22,8 C 17,2 C 90 % 1012,9 hPa 0,0 l/m 0 min 2 min 129 W/m 19,3 km/h (3 Bft) 97,87 %
22.06.2023 16:18 23,1 C 22,8 C 17,2 C 90 % 1012,8 hPa 0,0 l/m 0 min 0 min 138 W/m 6,4 km/h (2 Bft) 97,87 %
22.06.2023 16:20 23,1 C 22,8 C 17,2 C 91 % 1012,7 hPa 0,0 l/m 0 min 0 min 157 W/m 22,5 km/h (4 Bft) 97,87 %
22.06.2023 16:22 23,1 C 22,8 C 17,2 C 91 % 1012,7 hPa 0,0 l/m 0 min 0 min 143 W/m 12,9 km/h (3 Bft) 97,83 %
22.06.2023 16:24 23,1 C 22,8 C 17,2 C 91 % 1012,7 hPa 0,0 l/m 0 min 0 min 121 W/m 12,9 km/h (3 Bft) 97,87 %
22.06.2023 16:26 23,1 C 22,8 C 17,2 C 91 % 1012,7 hPa 0,0 l/m 0 min 0 min 111 W/m 6,4 km/h (2 Bft) 97,87 %
22.06.2023 16:28 23,0 C 22,8 C 17,2 C 91 % 1012,8 hPa 0,0 l/m 0 min 0 min 98 W/m 12,9 km/h (3 Bft) 93,62 %
22.06.2023 16:30 23,0 C 22,8 C 17,2 C 91 % 1012,8 hPa 0,0 l/m 0 min 0 min 95 W/m 12,9 km/h (3 Bft) 97,87 %
22.06.2023 16:32 23,0 C 22,8 C 17,2 C 91 % 1012,7 hPa 0,0 l/m 0 min 0 min 95 W/m 9,7 km/h (2 Bft) 97,87 %
22.06.2023 16:34 22,9 C 22,2 C 16,7 C 91 % 1012,7 hPa 0,0 l/m 0 min 0 min 83 W/m 12,9 km/h (3 Bft) 100,00 %
22.06.2023 16:36 22,9 C 22,2 C 16,7 C 91 % 1012,6 hPa 0,0 l/m 0 min 0 min 68 W/m 12,9 km/h (3 Bft) 93,48 %
22.06.2023 16:38 22,9 C 22,2 C 16,7 C 91 % 1012,6 hPa 0,0 l/m 0 min 0 min 55 W/m 19,3 km/h (3 Bft) 100,00 %
22.06.2023 16:40 22,8 C 22,2 C 17,2 C 91 % 1012,5 hPa 0,0 l/m 0 min 0 min 47 W/m 19,3 km/h (3 Bft) 100,00 %
22.06.2023 16:42 22,8 C 22,2 C 17,8 C 91 % 1012,4 hPa 0,0 l/m 0 min 0 min 50 W/m 16,1 km/h (3 Bft) 100,00 %
22.06.2023 16:44 22,7 C 22,2 C 17,8 C 91 % 1012,3 hPa 0,0 l/m 0 min 0 min 63 W/m 12,9 km/h (3 Bft) 100,00 %
22.06.2023 16:46 22,7 C 22,2 C 17,8 C 91 % 1012,3 hPa 0,0 l/m 0 min 0 min 71 W/m 12,9 km/h (3 Bft) 100,00 %
22.06.2023 16:48 22,7 C 22,2 C 17,8 C 91 % 1012,3 hPa 0,0 l/m 0 min 0 min 76 W/m 6,4 km/h (2 Bft) 100,00 %
22.06.2023 16:50 22,7 C 22,2 C 17,8 C 91 % 1012,3 hPa 0,0 l/m 0 min 0 min 74 W/m 19,3 km/h (3 Bft) 97,87 %
22.06.2023 16:52 22,6 C 22,2 C 17,8 C 91 % 1012,0 hPa 0,0 l/m 0 min 0 min 75 W/m 19,3 km/h (3 Bft) 100,00 %
22.06.2023 16:54 22,6 C 22,2 C 17,8 C 91 % 1011,8 hPa 0,0 l/m 0 min 0 min 91 W/m 12,9 km/h (3 Bft) 100,00 %
22.06.2023 16:56 22,6 C 22,2 C 17,8 C 91 % 1011,7 hPa 0,0 l/m 0 min 0 min 105 W/m 12,9 km/h (3 Bft) 100,00 %
22.06.2023 16:58 22,6 C 22,2 C 18,3 C 91 % 1011,8 hPa 0,0 l/m 0 min 0 min 110 W/m 12,9 km/h (3 Bft) 100,00 %
22.06.2023 17:00 22,6 C 22,2 C 18,3 C 91 % 1011,7 hPa 0,0 l/m 0 min 0 min 113 W/m 9,7 km/h (2 Bft) 100,00 %
22.06.2023 17:02 22,6 C 22,2 C 18,3 C 91 % 1011,7 hPa 0,0 l/m 0 min 0 min 92 W/m 16,1 km/h (3 Bft) 97,83 %
22.06.2023 17:04 22,6 C 22,2 C 18,3 C 91 % 1011,8 hPa 0,0 l/m 0 min 0 min 68 W/m 16,1 km/h (3 Bft) 93,75 %
22.06.2023 17:06 22,6 C 22,2 C 18,3 C 91 % 1011,7 hPa 0,0 l/m 0 min 0 min 49 W/m 12,9 km/h (3 Bft) 95,74 %
22.06.2023 17:08 22,5 C 22,2 C 18,3 C 91 % 1011,6 hPa 0,0 l/m 0 min 0 min 55 W/m 19,3 km/h (3 Bft) 97,87 %
22.06.2023 17:10 22,5 C 21,7 C 18,3 C 91 % 1011,5 hPa 0,0 l/m 0 min 0 min 61 W/m 19,3 km/h (3 Bft) 97,87 %
22.06.2023 17:12 22,4 C 21,7 C 18,3 C 91 % 1011,6 hPa 0,0 l/m 0 min 0 min 47 W/m 12,9 km/h (3 Bft) 95,74 %
22.06.2023 17:14 22,4 C 21,7 C 18,3 C 91 % 1011,5 hPa 0,0 l/m 0 min 0 min 42 W/m 12,9 km/h (3 Bft) 95,74 %
22.06.2023 17:16 22,4 C 21,7 C 18,3 C 90 % 1011,3 hPa 0,0 l/m 0 min 0 min 50 W/m 32,2 km/h (5 Bft) 93,48 %
22.06.2023 17:18 22,4 C 21,7 C 18,3 C 90 % 1011,2 hPa 0,0 l/m 0 min 0 min 67 W/m 32,2 km/h (5 Bft) 95,74 %
22.06.2023 17:20 22,3 C 21,7 C 17,8 C 90 % 1011,2 hPa 0,0 l/m 0 min 0 min 59 W/m 29,0 km/h (5 Bft) 97,87 %
22.06.2023 17:22 22,3 C 21,7 C 17,8 C 90 % 1011,2 hPa 0,0 l/m 0 min 0 min 42 W/m 9,7 km/h (2 Bft) 95,74 %
22.06.2023 17:24 22,3 C 21,7 C 17,8 C 90 % 1011,2 hPa 0,0 l/m 0 min 0 min 35 W/m 22,5 km/h (4 Bft) 97,87 %
22.06.2023 17:26 22,3 C 21,7 C 17,8 C 90 % 1011,1 hPa 0,0 l/m 0 min 0 min 27 W/m 16,1 km/h (3 Bft) 93,62 %
22.06.2023 17:28 22,2 C 21,7 C 17,8 C 90 % 1011,1 hPa 0,0 l/m 0 min 0 min 20 W/m 19,3 km/h (3 Bft) 95,74 %
22.06.2023 17:30 22,2 C 21,1 C 17,8 C 91 % 1011,1 hPa 0,0 l/m 0 min 0 min 15 W/m 19,3 km/h (3 Bft) 95,65 %
22.06.2023 17:32 22,2 C 21,1 C 17,8 C 91 % 1011,1 hPa 0,0 l/m 0 min 0 min 12 W/m 35,4 km/h (5 Bft) 95,74 %
22.06.2023 17:34 22,1 C 21,1 C 17,8 C 90 % 1011,1 hPa 0,0 l/m 0 min 0 min 12 W/m 12,9 km/h (3 Bft) 97,87 %
22.06.2023 17:36 22,1 C 21,1 C 17,8 C 91 % 1011,1 hPa 0,0 l/m 0 min 0 min 12 W/m 12,9 km/h (3 Bft) 97,87 %
22.06.2023 17:38 22,1 C 21,1 C 17,8 C 91 % 1011,0 hPa 0,0 l/m 0 min 2 min 12 W/m 12,9 km/h (3 Bft) 97,87 %
22.06.2023 17:40 22,1 C 21,1 C 17,8 C 91 % 1010,9 hPa 0,0 l/m 0 min 2 min 13 W/m 19,3 km/h (3 Bft) 97,87 %
22.06.2023 17:42 22,1 C 21,1 C 17,8 C 91 % 1010,9 hPa 0,0 l/m 0 min 2 min 13 W/m 25,7 km/h (4 Bft) 95,74 %
22.06.2023 17:44 22,1 C 21,1 C 17,2 C 91 % 1011,0 hPa 0,0 l/m 0 min 2 min 11 W/m 16,1 km/h (3 Bft) 95,65 %
22.06.2023 17:46 22,1 C 21,1 C 17,2 C 91 % 1011,1 hPa 0,2 l/m 0 min 2 min 12 W/m 12,9 km/h (3 Bft) 97,87 %
22.06.2023 17:48 22,0 C 20,6 C 16,7 C 92 % 1011,0 hPa 0,0 l/m 0 min 2 min 9 W/m 16,1 km/h (3 Bft) 97,87 %
22.06.2023 17:50 21,9 C 20,6 C 16,7 C 92 % 1011,2 hPa 0,0 l/m 0 min 2 min 5 W/m 22,5 km/h (4 Bft) 97,87 %
22.06.2023 17:52 21,8 C 20,6 C 16,7 C 92 % 1011,2 hPa 0,0 l/m 0 min 2 min 4 W/m 6,4 km/h (2 Bft) 97,87 %
22.06.2023 17:54 21,8 C 20,6 C 16,1 C 93 % 1011,3 hPa 0,2 l/m 0 min 2 min 0 W/m 12,9 km/h (3 Bft) 97,87 %
22.06.2023 17:56 21,7 C 20,6 C 16,1 C 93 % 1011,5 hPa 0,0 l/m 0 min 2 min 0 W/m 6,4 km/h (2 Bft) 91,49 %
22.06.2023 17:58 21,7 C 20,6 C 16,1 C 93 % 1011,7 hPa 0,2 l/m 0 min 2 min 0 W/m 9,7 km/h (2 Bft) 97,83 %
22.06.2023 18:00 21,6 C 20,6 C 16,1 C 93 % 1011,9 hPa 0,0 l/m 0 min 2 min 0 W/m 6,4 km/h (2 Bft) 95,74 %
22.06.2023 18:02 21,6 C 20,0 C 16,1 C 94 % 1011,8 hPa 0,4 l/m 0 min 2 min 0 W/m 9,7 km/h (2 Bft) 95,74 %
22.06.2023 18:04 21,6 C 20,0 C 16,1 C 94 % 1011,8 hPa 0,4 l/m 0 min 2 min 0 W/m 12,9 km/h (3 Bft) 97,96 %
22.06.2023 18:08 21,4 C 20,0 C 16,1 C 94 % 1011,5 hPa 0,4 l/m 0 min 4 min 0 W/m 25,7 km/h (4 Bft) 97,56 %
22.06.2023 18:10 21,3 C 19,4 C 16,1 C 94 % 1011,5 hPa 0,2 l/m 0 min 2 min 0 W/m 22,5 km/h (4 Bft) 97,87 %
22.06.2023 18:12 21,2 C 19,4 C 16,1 C 94 % 1011,4 hPa 0,2 l/m 0 min 2 min 0 W/m 12,9 km/h (3 Bft) 97,87 %
22.06.2023 18:14 21,1 C 19,4 C 16,1 C 95 % 1011,4 hPa 0,0 l/m 0 min 2 min 0 W/m 12,9 km/h (3 Bft) 97,83 %
22.06.2023 18:16 21,0 C 18,9 C 15,6 C 95 % 1011,4 hPa 0,2 l/m 0 min 2 min 0 W/m 16,1 km/h (3 Bft) 95,74 %
22.06.2023 18:18 20,9 C 19,4 C 15,6 C 95 % 1011,4 hPa 0,2 l/m 0 min 2 min 0 W/m 9,7 km/h (2 Bft) 97,87 %
22.06.2023 18:20 20,8 C 18,9 C 15,6 C 95 % 1011,4 hPa 0,0 l/m 0 min 2 min 0 W/m 22,5 km/h (4 Bft) 100,00 %
22.06.2023 18:22 20,7 C 18,9 C 15,6 C 95 % 1011,3 hPa 0,2 l/m 0 min 2 min 0 W/m 29,0 km/h (5 Bft) 100,00 %
22.06.2023 18:24 20,6 C 18,9 C 15,6 C 95 % 1011,1 hPa 0,2 l/m 0 min 2 min 0 W/m 25,7 km/h (4 Bft) 100,00 %
22.06.2023 18:26 20,5 C 18,9 C 15,6 C 95 % 1011,0 hPa 0,4 l/m 0 min 2 min 0 W/m 19,3 km/h (3 Bft) 100,00 %
22.06.2023 18:28 20,4 C 18,9 C 15,6 C 96 % 1010,8 hPa 0,2 l/m 0 min 2 min 0 W/m 22,5 km/h (4 Bft) 100,00 %
22.06.2023 18:30 20,3 C 18,9 C 15,6 C 96 % 1010,7 hPa 0,2 l/m 0 min 2 min 0 W/m 38,6 km/h (5 Bft) 100,00 %
22.06.2023 18:32 20,3 C 18,9 C 15,6 C 96 % 1010,7 hPa 0,2 l/m 0 min 2 min 0 W/m 25,7 km/h (4 Bft) 97,87 %
22.06.2023 18:34 20,2 C 18,9 C 15,6 C 96 % 1010,8 hPa 0,2 l/m 0 min 2 min 0 W/m 16,1 km/h (3 Bft) 97,87 %
22.06.2023 18:36 20,2 C 18,9 C 15,6 C 96 % 1010,9 hPa 0,0 l/m 0 min 2 min 0 W/m 16,1 km/h (3 Bft) 95,74 %
22.06.2023 18:38 20,2 C 18,9 C 15,6 C 97 % 1010,8 hPa 0,2 l/m 0 min 2 min 0 W/m 16,1 km/h (3 Bft) 97,87 %
22.06.2023 18:40 20,1 C 18,9 C 15,0 C 97 % 1010,9 hPa 0,2 l/m 0 min 2 min 0 W/m 22,5 km/h (4 Bft) 95,65 %
22.06.2023 18:42 20,1 C 18,9 C 15,6 C 97 % 1010,9 hPa 0,2 l/m 0 min 2 min 0 W/m 16,1 km/h (3 Bft) 97,87 %
22.06.2023 18:44 20,0 C 18,9 C 15,0 C 97 % 1011,0 hPa 0,2 l/m 0 min 2 min 0 W/m 22,5 km/h (4 Bft) 97,87 %
22.06.2023 18:46 19,9 C 18,9 C 15,0 C 97 % 1011,0 hPa 0,4 l/m 0 min 2 min 0 W/m 16,1 km/h (3 Bft) 95,74 %
22.06.2023 18:48 19,9 C 18,9 C 15,6 C 97 % 1010,9 hPa 0,2 l/m 0 min 2 min 2 W/m 9,7 km/h (2 Bft) 95,74 %
22.06.2023 18:50 19,9 C 18,9 C 15,0 C 97 % 1010,8 hPa 0,2 l/m 0 min 2 min 6 W/m 19,3 km/h (3 Bft) 97,87 %
22.06.2023 18:52 19,9 C 18,9 C 15,0 C 97 % 1010,8 hPa 0,2 l/m 0 min 2 min 10 W/m 12,9 km/h (3 Bft) 97,87 %
22.06.2023 18:54 19,9 C 18,9 C 15,6 C 97 % 1010,8 hPa 0,0 l/m 0 min 2 min 12 W/m 29,0 km/h (5 Bft) 97,83 %
22.06.2023 18:56 19,8 C 18,9 C 15,0 C 97 % 1010,8 hPa 0,0 l/m 0 min 2 min 10 W/m 22,5 km/h (4 Bft) 95,74 %
22.06.2023 18:58 19,8 C 18,9 C 15,0 C 97 % 1010,8 hPa 0,2 l/m 0 min 2 min 12 W/m 19,3 km/h (3 Bft) 95,74 %
22.06.2023 19:00 19,8 C 18,9 C 15,0 C 98 % 1010,8 hPa 0,0 l/m 0 min 2 min 20 W/m 16,1 km/h (3 Bft) 95,74 %
22.06.2023 19:02 19,8 C 18,3 C 15,0 C 98 % 1010,7 hPa 0,0 l/m 0 min 2 min 25 W/m 19,3 km/h (3 Bft) 93,62 %
22.06.2023 19:04 19,8 C 18,3 C 15,0 C 98 % 1010,7 hPa 0,2 l/m 0 min 2 min 24 W/m 16,1 km/h (3 Bft) 95,92 %
22.06.2023 19:06 19,8 C 18,9 C 15,0 C 98 % 1010,7 hPa 0,0 l/m 0 min 2 min 22 W/m 16,1 km/h (3 Bft) 93,62 %
22.06.2023 19:08 19,8 C 18,3 C 15,0 C 98 % 1010,7 hPa 0,0 l/m 0 min 2 min 19 W/m 16,1 km/h (3 Bft) 95,65 %
22.06.2023 19:10 19,7 C 18,3 C 15,0 C 98 % 1010,8 hPa 0,2 l/m 0 min 2 min 13 W/m 32,2 km/h (5 Bft) 95,74 %
22.06.2023 19:12 19,7 C 18,3 C 15,0 C 98 % 1010,7 hPa 0,0 l/m 0 min 2 min 8 W/m 19,3 km/h (3 Bft) 93,62 %
22.06.2023 19:14 19,7 C 18,3 C 15,0 C 98 % 1010,8 hPa 0,0 l/m 0 min 2 min 6 W/m 25,7 km/h (4 Bft) 95,74 %
22.06.2023 19:16 19,7 C 18,3 C 15,0 C 98 % 1010,8 hPa 0,0 l/m 0 min 0 min 5 W/m 16,1 km/h (3 Bft) 95,74 %
22.06.2023 19:18 19,7 C 18,3 C 15,0 C 98 % 1010,7 hPa 0,0 l/m 0 min 2 min 8 W/m 16,1 km/h (3 Bft) 93,62 %
22.06.2023 19:20 19,7 C 18,3 C 15,0 C 98 % 1010,8 hPa 0,0 l/m 0 min 0 min 10 W/m 19,3 km/h (3 Bft) 97,83 %
22.06.2023 19:22 19,7 C 18,3 C 15,0 C 98 % 1010,8 hPa 0,0 l/m 0 min 2 min 11 W/m 22,5 km/h (4 Bft) 93,62 %
22.06.2023 19:24 19,7 C 18,3 C 15,0 C 98 % 1010,7 hPa 0,0 l/m 0 min 2 min 14 W/m 19,3 km/h (3 Bft) 93,62 %
22.06.2023 19:26 19,7 C 18,3 C 15,0 C 98 % 1010,8 hPa 0,0 l/m 0 min 2 min 12 W/m 16,1 km/h (3 Bft) 97,87 %
22.06.2023 19:28 19,7 C 18,3 C 15,0 C 98 % 1010,8 hPa 0,0 l/m 0 min 2 min 9 W/m 16,1 km/h (3 Bft) 100,00 %
22.06.2023 19:30 19,6 C 18,3 C 15,0 C 98 % 1010,7 hPa 0,0 l/m 0 min 2 min 6 W/m 16,1 km/h (3 Bft) 100,00 %
22.06.2023 19:32 19,6 C 18,3 C 15,0 C 98 % 1010,7 hPa 0,0 l/m 0 min 0 min 2 W/m 22,5 km/h (4 Bft) 97,87 %
22.06.2023 19:34 19,7 C 18,9 C 15,0 C 98 % 1010,7 hPa 0,0 l/m 0 min 2 min 2 W/m 16,1 km/h (3 Bft) 97,83 %
22.06.2023 19:36 19,7 C 18,3 C 15,0 C 98 % 1010,6 hPa 0,0 l/m 0 min 2 min 6 W/m 16,1 km/h (3 Bft) 97,87 %
22.06.2023 19:38 19,6 C 18,3 C 15,0 C 98 % 1010,7 hPa 0,0 l/m 0 min 2 min 6 W/m 12,9 km/h (3 Bft) 100,00 %
22.06.2023 19:40 19,6 C 18,3 C 15,0 C 98 % 1010,7 hPa 0,2 l/m 0 min 2 min 6 W/m 19,3 km/h (3 Bft) 100,00 %
22.06.2023 19:42 19,6 C 18,3 C 15,0 C 98 % 1010,7 hPa 0,0 l/m 0 min 2 min 5 W/m 16,1 km/h (3 Bft) 100,00 %
22.06.2023 19:44 19,6 C 18,3 C 15,0 C 98 % 1010,7 hPa 0,0 l/m 0 min 2 min 4 W/m 32,2 km/h (5 Bft) 100,00 %
22.06.2023 19:46 19,6 C 18,3 C 15,0 C 98 % 1010,7 hPa 0,0 l/m 0 min 2 min 4 W/m 16,1 km/h (3 Bft) 100,00 %
22.06.2023 19:48 19,6 C 18,3 C 15,0 C 98 % 1010,8 hPa 0,0 l/m 0 min 2 min 7 W/m 29,0 km/h (5 Bft) 100,00 %
22.06.2023 19:50 19,6 C 18,3 C 15,0 C 98 % 1010,7 hPa 0,0 l/m 0 min 2 min 11 W/m 12,9 km/h (3 Bft) 100,00 %
22.06.2023 19:52 19,5 C 18,3 C 15,0 C 98 % 1010,7 hPa 0,0 l/m 0 min 2 min 9 W/m 16,1 km/h (3 Bft) 100,00 %
22.06.2023 19:54 19,5 C 18,3 C 15,0 C 99 % 1010,8 hPa 0,0 l/m 0 min 2 min 8 W/m 25,7 km/h (4 Bft) 100,00 %
22.06.2023 19:56 19,5 C 18,3 C 15,0 C 99 % 1010,8 hPa 0,2 l/m 0 min 2 min 5 W/m 29,0 km/h (5 Bft) 97,87 %
22.06.2023 19:58 19,4 C 18,3 C 15,0 C 99 % 1010,8 hPa 0,0 l/m 0 min 2 min 5 W/m 22,5 km/h (4 Bft) 97,87 %
22.06.2023 20:00 19,4 C 18,3 C 15,0 C 99 % 1010,8 hPa 0,0 l/m 0 min 2 min 4 W/m 19,3 km/h (3 Bft) 100,00 %
22.06.2023 20:02 19,4 C 18,3 C 15,0 C 99 % 1010,9 hPa 0,0 l/m 0 min 2 min 0 W/m 16,1 km/h (3 Bft) 97,87 %
22.06.2023 20:04 19,4 C 18,3 C 15,0 C 99 % 1010,9 hPa 0,0 l/m 0 min 2 min 0 W/m 16,1 km/h (3 Bft) 100,00 %
22.06.2023 20:06 19,4 C 18,3 C 15,0 C 99 % 1010,9 hPa 0,2 l/m 0 min 2 min 0 W/m 29,0 km/h (5 Bft) 100,00 %
22.06.2023 20:08 19,3 C 18,3 C 15,0 C 98 % 1010,9 hPa 0,0 l/m 0 min 2 min 0 W/m 19,3 km/h (3 Bft) 100,00 %
22.06.2023 20:10 19,3 C 18,3 C 15,0 C 98 % 1010,8 hPa 0,2 l/m 0 min 2 min 0 W/m 22,5 km/h (4 Bft) 100,00 %
22.06.2023 20:12 19,3 C 18,3 C 15,0 C 98 % 1010,8 hPa 0,2 l/m 0 min 2 min 0 W/m 29,0 km/h (5 Bft) 97,87 %
22.06.2023 20:14 19,3 C 18,3 C 14,4 C 98 % 1010,8 hPa 0,0 l/m 0 min 2 min 0 W/m 35,4 km/h (5 Bft) 100,00 %
22.06.2023 20:16 19,2 C 17,8 C 14,4 C 98 % 1011,0 hPa 0,4 l/m 0 min 2 min 0 W/m 32,2 km/h (5 Bft) 100,00 %
22.06.2023 20:18 19,1 C 17,8 C 14,4 C 99 % 1010,9 hPa 0,6 l/m 0 min 2 min 0 W/m 22,5 km/h (4 Bft) 100,00 %
22.06.2023 20:20 19,1 C 17,8 C 14,4 C 99 % 1011,0 hPa 0,6 l/m 0 min 2 min 0 W/m 41,8 km/h (6 Bft) 97,87 %
22.06.2023 20:22 18,9 C 17,8 C 14,4 C 98 % 1011,0 hPa 0,8 l/m 0 min 2 min 0 W/m 41,8 km/h (6 Bft) 97,87 %
22.06.2023 20:24 18,9 C 17,8 C 14,4 C 98 % 1011,1 hPa 0,6 l/m 0 min 2 min 0 W/m 38,6 km/h (5 Bft) 95,74 %
22.06.2023 20:26 18,8 C 17,8 C 14,4 C 98 % 1011,0 hPa 0,8 l/m 0 min 2 min 0 W/m 22,5 km/h (4 Bft) 95,65 %
22.06.2023 20:28 18,8 C 17,2 C 14,4 C 98 % 1011,0 hPa 1,2 l/m 0 min 2 min 0 W/m 22,5 km/h (4 Bft) 95,74 %
22.06.2023 20:30 18,8 C 17,8 C 14,4 C 99 % 1011,2 hPa 1,2 l/m 0 min 2 min 0 W/m 32,2 km/h (5 Bft) 95,74 %
22.06.2023 20:32 18,7 C 17,2 C 13,9 C 99 % 1011,3 hPa 1,0 l/m 0 min 2 min 0 W/m 35,4 km/h (5 Bft) 95,74 %
22.06.2023 20:34 18,6 C 17,2 C 13,9 C 99 % 1011,2 hPa 1,0 l/m 0 min 2 min 0 W/m 35,4 km/h (5 Bft) 97,87 %
22.06.2023 20:36 18,6 C 17,2 C 14,4 C 98 % 1011,3 hPa 1,2 l/m 0 min 2 min 0 W/m 32,2 km/h (5 Bft) 97,87 %
22.06.2023 20:38 18,6 C 17,2 C 13,9 C 98 % 1011,3 hPa 1,0 l/m 0 min 2 min 0 W/m 16,1 km/h (3 Bft) 97,87 %
22.06.2023 20:40 18,6 C 17,2 C 13,9 C 99 % 1011,3 hPa 1,0 l/m 0 min 2 min 0 W/m 22,5 km/h (4 Bft) 93,48 %
22.06.2023 20:42 18,5 C 17,2 C 14,4 C 99 % 1011,2 hPa 0,8 l/m 0 min 2 min 0 W/m 29,0 km/h (5 Bft) 97,87 %
22.06.2023 20:44 18,5 C 17,2 C 14,4 C 99 % 1011,3 hPa 0,8 l/m 0 min 2 min 0 W/m 22,5 km/h (4 Bft) 95,74 %
22.06.2023 20:46 18,5 C 17,2 C 14,4 C 99 % 1011,3 hPa 0,8 l/m 0 min 2 min 0 W/m 35,4 km/h (5 Bft) 91,49 %
22.06.2023 20:48 18,4 C 17,2 C 14,4 C 99 % 1011,3 hPa 1,0 l/m 0 min 2 min 0 W/m 45,1 km/h (6 Bft) 97,87 %
22.06.2023 20:50 18,4 C 17,2 C 14,4 C 99 % 1011,4 hPa 0,6 l/m 0 min 2 min 0 W/m 19,3 km/h (3 Bft) 95,74 %
22.06.2023 20:52 18,4 C 17,2 C 13,9 C 99 % 1011,5 hPa 0,8 l/m 0 min 2 min 0 W/m 32,2 km/h (5 Bft) 93,48 %
22.06.2023 20:54 18,4 C 17,2 C 13,9 C 99 % 1011,5 hPa 0,8 l/m 0 min 2 min 0 W/m 22,5 km/h (4 Bft) 95,74 %
22.06.2023 20:56 18,4 C 17,2 C 13,9 C 99 % 1011,5 hPa 0,4 l/m 0 min 2 min 0 W/m 29,0 km/h (5 Bft) 95,74 %
22.06.2023 20:58 18,4 C 17,2 C 13,9 C 99 % 1011,6 hPa 0,6 l/m 0 min 2 min 0 W/m 32,2 km/h (5 Bft) 93,62 %
22.06.2023 21:00 18,4 C 17,2 C 14,4 C 99 % 1011,6 hPa 0,4 l/m 0 min 2 min 0 W/m 29,0 km/h (5 Bft) 95,74 %
22.06.2023 21:02 18,4 C 17,2 C 13,9 C 99 % 1011,7 hPa 0,4 l/m 0 min 2 min 0 W/m 25,7 km/h (4 Bft) 95,74 %
22.06.2023 21:04 18,3 C 17,2 C 13,9 C 99 % 1011,7 hPa 0,6 l/m 0 min 2 min 0 W/m 35,4 km/h (5 Bft) 93,75 %
22.06.2023 21:06 18,3 C 17,2 C 13,9 C 99 % 1011,8 hPa 0,4 l/m 0 min 2 min 0 W/m 25,7 km/h (4 Bft) 95,74 %
22.06.2023 21:08 18,3 C 17,2 C 13,9 C 99 % 1011,8 hPa 0,6 l/m 0 min 2 min 0 W/m 19,3 km/h (3 Bft) 95,74 %
22.06.2023 21:10 18,2 C 17,2 C 13,9 C 99 % 1011,7 hPa 0,4 l/m 0 min 2 min 0 W/m 32,2 km/h (5 Bft) 93,48 %
22.06.2023 21:12 18,2 C 17,2 C 13,9 C 99 % 1011,8 hPa 0,2 l/m 0 min 2 min 0 W/m 22,5 km/h (4 Bft) 95,74 %
22.06.2023 21:14 18,1 C 16,7 C 13,9 C 99 % 1011,8 hPa 0,4 l/m 0 min 2 min 0 W/m 35,4 km/h (5 Bft) 97,87 %
22.06.2023 21:16 18,1 C 16,7 C 13,9 C 99 % 1011,9 hPa 0,0 l/m 0 min 2 min 0 W/m 38,6 km/h (5 Bft) 95,74 %
22.06.2023 21:18 17,9 C 16,7 C 13,3 C 99 % 1011,9 hPa 0,2 l/m 0 min 2 min 0 W/m 51,5 km/h (7 Bft) 97,87 %
22.06.2023 21:20 17,8 C 16,7 C 13,3 C 99 % 1012,2 hPa 0,2 l/m 0 min 2 min 0 W/m 35,4 km/h (5 Bft) 95,74 %
22.06.2023 21:22 17,7 C 16,1 C 13,3 C 99 % 1012,2 hPa 0,2 l/m 0 min 2 min 0 W/m 41,8 km/h (6 Bft) 91,49 %
22.06.2023 21:24 17,5 C 16,1 C 13,3 C 99 % 1012,3 hPa 0,0 l/m 0 min 2 min 0 W/m 38,6 km/h (5 Bft) 97,83 %
22.06.2023 21:26 17,4 C 16,1 C 12,8 C 99 % 1012,3 hPa 0,2 l/m 0 min 2 min 0 W/m 38,6 km/h (5 Bft) 95,74 %
22.06.2023 21:28 17,3 C 16,1 C 12,8 C 99 % 1012,4 hPa 0,0 l/m 0 min 2 min 0 W/m 41,8 km/h (6 Bft) 93,62 %
22.06.2023 21:30 17,2 C 16,1 C 12,8 C 99 % 1012,4 hPa 0,2 l/m 0 min 2 min 0 W/m 25,7 km/h (4 Bft) 97,87 %
22.06.2023 21:32 17,1 C 16,1 C 12,8 C 99 % 1012,5 hPa 0,2 l/m 0 min 2 min 0 W/m 35,4 km/h (5 Bft) 97,87 %
22.06.2023 21:34 17,1 C 16,1 C 12,8 C 99 % 1012,7 hPa 0,0 l/m 0 min 2 min 0 W/m 35,4 km/h (5 Bft) 95,74 %
22.06.2023 21:36 17,0 C 15,6 C 12,8 C 99 % 1012,6 hPa 0,2 l/m 0 min 2 min 0 W/m 32,2 km/h (5 Bft) 95,74 %
22.06.2023 21:38 16,9 C 15,6 C 12,8 C 99 % 1012,6 hPa 0,2 l/m 0 min 2 min 0 W/m 41,8 km/h (6 Bft) 97,83 %
22.06.2023 21:40 16,9 C 16,1 C 12,8 C 99 % 1012,6 hPa 0,0 l/m 0 min 2 min 0 W/m 29,0 km/h (5 Bft) 89,36 %
22.06.2023 21:42 16,9 C 16,1 C 12,8 C 99 % 1012,6 hPa 0,2 l/m 0 min 2 min 0 W/m 38,6 km/h (5 Bft) 95,74 %
22.06.2023 21:44 16,9 C 16,1 C 12,8 C 99 % 1012,8 hPa 0,2 l/m 0 min 2 min 0 W/m 38,6 km/h (5 Bft) 97,87 %
22.06.2023 21:46 16,9 C 15,6 C 12,8 C 99 % 1012,8 hPa 0,0 l/m 0 min 2 min 0 W/m 38,6 km/h (5 Bft) 95,74 %
22.06.2023 21:48 16,9 C 16,1 C 12,8 C 99 % 1012,8 hPa 0,2 l/m 0 min 2 min 0 W/m 25,7 km/h (4 Bft) 97,87 %
22.06.2023 21:50 16,9 C 15,6 C 12,8 C 99 % 1012,8 hPa 0,0 l/m 0 min 2 min 0 W/m 29,0 km/h (5 Bft) 55,56 %
22.06.2023 21:52 16,9 C 16,1 C 12,8 C 99 % 1012,8 hPa 0,2 l/m 0 min 2 min 0 W/m 35,4 km/h (5 Bft) 95,65 %
22.06.2023 21:54 16,9 C 16,1 C 12,8 C 99 % 1012,9 hPa 0,0 l/m 0 min 2 min 0 W/m 22,5 km/h (4 Bft) 97,87 %
22.06.2023 21:56 16,9 C 16,1 C 12,8 C 99 % 1012,9 hPa 0,2 l/m 0 min 2 min 0 W/m 41,8 km/h (6 Bft) 95,74 %
22.06.2023 21:58 16,9 C 16,1 C 12,8 C 99 % 1013,0 hPa 0,2 l/m 0 min 2 min 0 W/m 41,8 km/h (6 Bft) 93,62 %
22.06.2023 22:00 16,9 C 16,1 C 12,8 C 99 % 1012,9 hPa 0,0 l/m 0 min 2 min 0 W/m 32,2 km/h (5 Bft) 95,74 %
22.06.2023 22:02 17,0 C 16,1 C 12,8 C 99 % 1012,9 hPa 0,2 l/m 0 min 2 min 0 W/m 48,3 km/h (6 Bft) 93,62 %
22.06.2023 22:04 17,1 C 16,1 C 12,8 C 99 % 1013,1 hPa 0,2 l/m 0 min 2 min 0 W/m 54,7 km/h (7 Bft) 93,48 %
22.06.2023 22:06 17,1 C 16,1 C 12,8 C 99 % 1013,0 hPa 0,0 l/m 0 min 2 min 0 W/m 41,8 km/h (6 Bft) 97,87 %
22.06.2023 22:08 17,1 C 16,1 C 12,8 C 99 % 1013,0 hPa 0,2 l/m 0 min 2 min 0 W/m 32,2 km/h (5 Bft) 100,00 %
22.06.2023 22:10 17,1 C 16,1 C 12,8 C 99 % 1013,1 hPa 0,2 l/m 0 min 2 min 0 W/m 35,4 km/h (5 Bft) 97,87 %
22.06.2023 22:12 17,1 C 16,1 C 12,8 C 99 % 1013,0 hPa 0,2 l/m 0 min 2 min 0 W/m 32,2 km/h (5 Bft) 100,00 %
22.06.2023 22:14 17,2 C 16,1 C 12,8 C 99 % 1013,0 hPa 0,2 l/m 0 min 2 min 0 W/m 29,0 km/h (5 Bft) 93,62 %
22.06.2023 22:16 17,2 C 16,1 C 13,3 C 99 % 1013,3 hPa 0,0 l/m 0 min 2 min 0 W/m 48,3 km/h (6 Bft) 95,74 %
22.06.2023 22:18 17,3 C 16,1 C 13,3 C 99 % 1013,1 hPa 0,2 l/m 0 min 2 min 0 W/m 35,4 km/h (5 Bft) 100,00 %
22.06.2023 22:20 17,3 C 16,1 C 13,3 C 99 % 1013,2 hPa 0,4 l/m 0 min 2 min 0 W/m 48,3 km/h (6 Bft) 100,00 %
22.06.2023 22:22 17,3 C 16,1 C 13,3 C 99 % 1013,3 hPa 0,0 l/m 0 min 2 min 0 W/m 16,1 km/h (3 Bft) 97,14 %
22.06.2023 22:24 17,4 C 16,7 C 13,3 C 99 % 1013,4 hPa 0,2 l/m 0 min 2 min 0 W/m 25,7 km/h (4 Bft) 100,00 %
22.06.2023 22:26 17,4 C 16,7 C 13,3 C 99 % 1013,5 hPa 0,0 l/m 0 min 2 min 0 W/m 38,6 km/h (5 Bft) 100,00 %
22.06.2023 22:28 17,5 C 16,7 C 13,3 C 99 % 1013,5 hPa 0,2 l/m 0 min 2 min 0 W/m 32,2 km/h (5 Bft) 100,00 %
22.06.2023 22:30 17,5 C 16,7 C 13,3 C 99 % 1013,6 hPa 0,2 l/m 0 min 2 min 0 W/m 48,3 km/h (6 Bft) 100,00 %
22.06.2023 22:32 17,6 C 16,7 C 13,3 C 99 % 1013,6 hPa 0,2 l/m 0 min 2 min 0 W/m 35,4 km/h (5 Bft) 97,87 %
22.06.2023 22:34 17,6 C 16,7 C 13,3 C 99 % 1013,5 hPa 0,0 l/m 0 min 2 min 0 W/m 29,0 km/h (5 Bft) 100,00 %
22.06.2023 22:36 17,6 C 16,7 C 13,3 C 99 % 1013,6 hPa 0,2 l/m 0 min 2 min 0 W/m 32,2 km/h (5 Bft) 100,00 %
22.06.2023 22:38 17,6 C 16,7 C 13,3 C 99 % 1013,7 hPa 0,0 l/m 0 min 2 min 0 W/m 22,5 km/h (4 Bft) 100,00 %
22.06.2023 22:40 17,6 C 16,7 C 13,3 C 99 % 1013,6 hPa 0,2 l/m 0 min 2 min 0 W/m 32,2 km/h (5 Bft) 100,00 %
22.06.2023 22:42 17,6 C 16,7 C 13,3 C 99 % 1013,7 hPa 0,0 l/m 0 min 2 min 0 W/m 22,5 km/h (4 Bft) 97,87 %
22.06.2023 22:44 17,6 C 16,7 C 13,3 C 99 % 1013,6 hPa 0,2 l/m 0 min 2 min 0 W/m 35,4 km/h (5 Bft) 100,00 %
22.06.2023 22:46 17,6 C 16,7 C 13,3 C 99 % 1013,7 hPa 0,2 l/m 0 min 2 min 0 W/m 38,6 km/h (5 Bft) 97,87 %
22.06.2023 22:48 17,6 C 16,7 C 13,3 C 99 % 1013,7 hPa 0,2 l/m 0 min 2 min 0 W/m 29,0 km/h (5 Bft) 97,87 %
22.06.2023 22:50 17,6 C 16,7 C 13,3 C 99 % 1013,7 hPa 0,0 l/m 0 min 2 min 0 W/m 32,2 km/h (5 Bft) 97,83 %
22.06.2023 22:52 17,6 C 16,7 C 13,3 C 99 % 1013,8 hPa 0,2 l/m 0 min 2 min 0 W/m 35,4 km/h (5 Bft) 97,87 %
22.06.2023 22:54 17,6 C 16,7 C 13,3 C 99 % 1013,7 hPa 0,2 l/m 0 min 2 min 0 W/m 29,0 km/h (5 Bft) 97,87 %
22.06.2023 22:56 17,6 C 16,7 C 13,3 C 99 % 1013,7 hPa 0,0 l/m 0 min 2 min 0 W/m 41,8 km/h (6 Bft) 97,87 %
22.06.2023 22:58 17,6 C 16,7 C 13,3 C 99 % 1013,7 hPa 0,2 l/m 0 min 2 min 0 W/m 32,2 km/h (5 Bft) 95,74 %
22.06.2023 23:00 17,5 C 16,7 C 13,3 C 99 % 1013,6 hPa 0,2 l/m 0 min 2 min 0 W/m 57,9 km/h (7 Bft) 97,87 %
22.06.2023 23:02 17,6 C 16,7 C 13,3 C 99 % 1013,7 hPa 0,0 l/m 0 min 2 min 0 W/m 38,6 km/h (5 Bft) 93,48 %
22.06.2023 23:04 17,6 C 16,7 C 13,3 C 99 % 1013,8 hPa 0,4 l/m 0 min 2 min 0 W/m 35,4 km/h (5 Bft) 97,87 %
22.06.2023 23:06 17,6 C 16,7 C 13,3 C 99 % 1013,9 hPa 0,0 l/m 0 min 2 min 0 W/m 32,2 km/h (5 Bft) 95,74 %
22.06.2023 23:08 17,6 C 16,7 C 13,3 C 99 % 1013,8 hPa 0,2 l/m 0 min 2 min 0 W/m 29,0 km/h (5 Bft) 97,87 %
22.06.2023 23:10 17,6 C 16,7 C 13,3 C 99 % 1013,9 hPa 0,2 l/m 0 min 2 min 0 W/m 29,0 km/h (5 Bft) 97,87 %
22.06.2023 23:12 17,6 C 16,7 C 13,3 C 99 % 1014,0 hPa 0,2 l/m 0 min 2 min 0 W/m 32,2 km/h (5 Bft) 97,87 %
22.06.2023 23:14 17,6 C 16,7 C 13,3 C 99 % 1014,1 hPa 0,2 l/m 0 min 2 min 0 W/m 29,0 km/h (5 Bft) 93,62 %
22.06.2023 23:16 17,6 C 16,7 C 13,3 C 99 % 1014,2 hPa 0,2 l/m 0 min 2 min 0 W/m 35,4 km/h (5 Bft) 95,65 %
22.06.2023 23:18 17,5 C 16,7 C 13,3 C 99 % 1014,2 hPa 0,2 l/m 0 min 2 min 0 W/m 19,3 km/h (3 Bft) 100,00 %
22.06.2023 23:20 17,5 C 16,7 C 13,9 C 99 % 1014,2 hPa 0,2 l/m 0 min 2 min 0 W/m 16,1 km/h (3 Bft) 97,87 %
22.06.2023 23:22 17,5 C 16,7 C 13,3 C 99 % 1014,2 hPa 0,2 l/m 0 min 2 min 0 W/m 19,3 km/h (3 Bft) 97,87 %
22.06.2023 23:24 17,5 C 16,7 C 13,3 C 99 % 1014,3 hPa 0,0 l/m 0 min 2 min 0 W/m 19,3 km/h (3 Bft) 97,87 %
22.06.2023 23:26 17,5 C 16,7 C 13,3 C 99 % 1014,4 hPa 0,2 l/m 0 min 2 min 0 W/m 16,1 km/h (3 Bft) 95,74 %
22.06.2023 23:28 17,5 C 16,7 C 13,3 C 99 % 1014,4 hPa 0,2 l/m 0 min 2 min 0 W/m 25,7 km/h (4 Bft) 97,83 %
22.06.2023 23:30 17,5 C 16,7 C 13,3 C 99 % 1014,5 hPa 0,2 l/m 0 min 2 min 0 W/m 22,5 km/h (4 Bft) 97,87 %
22.06.2023 23:32 17,4 C 16,7 C 13,3 C 99 % 1014,5 hPa 0,0 l/m 0 min 2 min 0 W/m 22,5 km/h (4 Bft) 97,37 %
22.06.2023 23:34 17,4 C 16,7 C 13,3 C 99 % 1014,6 hPa 0,2 l/m 0 min 2 min 0 W/m 32,2 km/h (5 Bft) 95,74 %
22.06.2023 23:36 17,4 C 16,7 C 13,3 C 99 % 1014,7 hPa 0,0 l/m 0 min 2 min 0 W/m 19,3 km/h (3 Bft) 97,87 %
22.06.2023 23:38 17,4 C 16,7 C 13,3 C 99 % 1014,6 hPa 0,2 l/m 0 min 2 min 0 W/m 19,3 km/h (3 Bft) 97,87 %
22.06.2023 23:40 17,4 C 16,7 C 13,3 C 99 % 1014,7 hPa 0,0 l/m 0 min 2 min 0 W/m 16,1 km/h (3 Bft) 97,87 %
22.06.2023 23:42 17,4 C 16,7 C 13,9 C 99 % 1014,7 hPa 0,2 l/m 0 min 2 min 0 W/m 22,5 km/h (4 Bft) 97,87 %
22.06.2023 23:44 17,4 C 16,7 C 13,3 C 99 % 1014,8 hPa 0,0 l/m 0 min 2 min 0 W/m 25,7 km/h (4 Bft) 97,83 %
22.06.2023 23:46 17,4 C 16,7 C 13,3 C 100 % 1014,9 hPa 0,0 l/m 0 min 2 min 0 W/m 12,9 km/h (3 Bft) 95,74 %
22.06.2023 23:48 17,4 C 16,1 C 13,3 C 100 % 1015,0 hPa 0,2 l/m 0 min 2 min 0 W/m 25,7 km/h (4 Bft) 97,87 %
22.06.2023 23:50 17,4 C 16,7 C 13,3 C 100 % 1015,0 hPa 0,0 l/m 0 min 2 min 0 W/m 19,3 km/h (3 Bft) 97,87 %
22.06.2023 23:52 17,4 C 16,1 C 13,3 C 100 % 1015,1 hPa 0,0 l/m 0 min 2 min 0 W/m 22,5 km/h (4 Bft) 97,87 %
22.06.2023 23:54 17,3 C 16,1 C 13,3 C 100 % 1015,2 hPa 0,0 l/m 0 min 2 min 0 W/m 35,4 km/h (5 Bft) 97,87 %
22.06.2023 23:56 17,3 C 16,1 C 13,3 C 100 % 1015,3 hPa 0,2 l/m 0 min 2 min 0 W/m 41,8 km/h (6 Bft) 95,65 %
22.06.2023 23:58 17,3 C 16,1 C 13,3 C 99 % 1015,2 hPa 0,0 l/m 0 min 2 min 0 W/m 25,7 km/h (4 Bft) 98,00 %
_ Min-Zeit 21:38 21:36 21:26 00:00 19:36 - - - - 00:08 21:50
Minimum _ 16,9 C 15,6 C 12,8 C 67 % 1010,6 hPa - - - - 0,0 km/h (0 Bft) 55,56 %
_ Max-Zeit 11:56 11:08 11:54 23:46 00:24 20:28 12:08 18:08 10:56 23:00 00:08
Maximum _ 26,8 C 29,4 C 25,0 C 100 % 1018,9 hPa 1,2 l/m 4 min 4 min 880 W/m 57,9 km/h
N-NW (7 Bft)
100,00 %
Durchschnitt _ 21,3 C 20,6 C 16,8 C 86 % 1015,3 hPa #42,8 l/m #1:18 h #8:02 h 153 W/m 11,6 km/h (2 Bft) 97,36 %
© 2023 W. Hausmann